Data for 06/27/2009

Time Sea-Level Adjusted Pressure Absolute Pressure Temperature Relative Humidity Dew Point Precipitation   
(mb) (inHg) (mb) (inHg) (C) (F) (%) (C) (F) (mm) (in)
00:01 1022 30.18 851 25.13 8 46.3 84 5.4 41.7 8.31 0.327
00:02 1022 30.18 851 25.13 8 46.3 84 5.4 41.7 8.24 0.324
00:03 1022 30.18 851 25.13 7.9 46.2 84 5.3 41.5 8.22 0.324
00:04 1022 30.18 851 25.13 7.8 46.1 84 5.3 41.5 8.12 0.32
00:05 1022 30.18 851 25.13 7.7 45.8 84 5.1 41.2 8 0.315
00:06 1022 30.18 851 25.13 7.5 45.5 84 4.9 40.8 7.81 0.307
00:07 1022 30.18 851 25.13 7.3 45.1 85 4.9 40.8 7.61 0.3
00:08 1022 30.18 851 25.13 7.1 44.8 85 4.8 40.7 7.48 0.294
00:09 1022 30.18 851 25.13 7 44.6 86 4.9 40.8 7.38 0.291
00:10 1022 30.18 851 25.13 7 44.6 87 4.9 40.8 7.3 0.287
00:11 1022 30.18 851 25.13 6.9 44.5 86 4.8 40.6 7.25 0.285
00:12 1022 30.18 852 25.16 6.9 44.5 86 4.8 40.7 7.19 0.283
00:13 1022 30.18 852 25.16 6.8 44.3 87 4.8 40.7 7.17 0.282
00:14 1022 30.18 852 25.16 6.9 44.5 87 4.9 40.9 7.22 0.284
00:15 1022 30.18 852 25.16 7.1 44.8 86 4.9 40.8 7.36 0.29
00:16 1022 30.18 852 25.16 7.3 45.1 84 4.8 40.7 7.48 0.294
00:17 1022 30.18 852 25.16 7.4 45.3 83 4.7 40.5 7.61 0.3
00:18 1022 30.18 852 25.16 7.4 45.3 83 4.7 40.4 7.63 0.3
00:19 1022 30.18 852 25.16 7.3 45.2 83 4.6 40.2 7.58 0.298
00:20 1022 30.18 852 25.16 7.2 45 83 4.5 40.2 7.48 0.294
00:21 1022 30.18 852 25.16 7.1 44.7 84 4.6 40.2 7.41 0.292
00:22 1023 30.21 852 25.16 7.1 44.8 84 4.6 40.3 7.4 0.291
00:23 1023 30.21 852 25.16 7.1 44.7 84 4.6 40.3 7.4 0.291
00:24 1023 30.21 852 25.16 7 44.6 84 4.5 40.1 7.35 0.289
00:25 1023 30.21 852 25.16 6.9 44.5 84 4.5 40.1 7.31 0.288
00:26 1023 30.21 852 25.16 6.9 44.4 84 4.5 40 7.27 0.286
00:27 1023 30.21 852 25.16 6.9 44.4 84 4.5 40 7.25 0.285
00:28 1023 30.21 852 25.16 6.9 44.4 84 4.4 39.8 7.22 0.284
00:29 1023 30.21 852 25.16 6.9 44.4 84 4.4 39.9 7.25 0.285
00:30 1023 30.21 852 25.16 6.9 44.4 84 4.3 39.8 7.24 0.285
00:31 1023 30.21 852 25.16 6.9 44.4 83 4.3 39.7 7.22 0.284
00:32 1023 30.21 852 25.16 6.9 44.4 83 4.3 39.7 7.23 0.285
00:33 1023 30.21 852 25.16 6.9 44.4 83 4.3 39.7 7.28 0.287
00:34 1023 30.21 852 25.16 6.9 44.4 83 4.2 39.6 7.27 0.286
00:35 1023 30.21 852 25.16 7 44.6 83 4.2 39.6 7.31 0.288
00:36 1023 30.21 852 25.16 7.1 44.7 82 4.2 39.5 7.45 0.293
00:37 1023 30.21 852 25.16 7.2 45 81 4.2 39.5 7.52 0.296
00:38 1023 30.21 852 25.16 7.2 45 81 4.2 39.6 7.56 0.298
00:39 1023 30.21 852 25.16 7.2 45 81 4.2 39.6 7.56 0.298
00:40 1023 30.21 852 25.16 7.1 44.9 81 4.1 39.3 7.51 0.296
00:41 1023 30.21 852 25.16 7.1 44.8 81 4 39.3 7.45 0.293
00:42 1023 30.21 852 25.16 7 44.6 81 4 39.1 7.41 0.292
00:43 1023 30.21 852 25.16 7.1 44.7 81 4 39.2 7.36 0.29
00:44 1023 30.21 852 25.16 7.1 44.9 80 3.9 39.1 7.44 0.293
00:45 1023 30.21 852 25.16 7.3 45.1 79 3.8 38.8 7.56 0.298
00:46 1023 30.21 852 25.16 7.5 45.4 77 3.7 38.7 7.7 0.303
00:47 1023 30.21 852 25.16 7.6 45.8 76 3.7 38.7 7.85 0.309
00:48 1023 30.21 852 25.16 7.9 46.1 74 3.6 38.5 8.04 0.317
00:49 1023 30.21 852 25.16 8 46.3 74 3.5 38.4 8.18 0.322
00:50 1023 30.21 852 25.16 8.2 46.7 72 3.5 38.3 8.31 0.327
00:51 1023 30.21 852 25.16 8.3 47 72 3.6 38.4 8.5 0.335
00:52 1023 30.21 852 25.16 8.3 46.9 73 3.7 38.7 8.55 0.337
00:53 1023 30.21 852 25.16 8.1 46.5 73 3.6 38.5 8.4 0.331
00:54 1023 30.21 852 25.16 7.9 46.2 74 3.6 38.5 8.25 0.325
00:55 1023 30.21 852 25.16 7.7 45.8 75 3.6 38.5 8.06 0.317
00:56 1023 30.21 852 25.16 7.5 45.5 76 3.5 38.4 7.89 0.311
00:57 1023 30.21 852 25.16 7.4 45.2 76 3.5 38.2 7.75 0.305
00:58 1023 30.21 852 25.16 7.3 45.2 76 3.4 38.2 7.69 0.303
00:59 1023 30.21 852 25.16 7.3 45.1 76 3.4 38 7.64 0.301
01:00 1023 30.21 852 25.16 7.3 45.1 76 3.3 38 7.62 0.3
01:01 1023 30.21 852 25.16 7.2 45 76 3.3 37.9 7.53 0.296
01:02 1023 30.21 852 25.16 7.1 44.9 76 3.2 37.7 7.49 0.295
01:03 1023 30.21 852 25.16 7.2 44.9 76 3.3 37.9 7.48 0.294
01:04 1023 30.21 852 25.16 7.2 44.9 76 3.2 37.8 7.49 0.295
01:05 1023 30.21 852 25.16 7.1 44.9 76 3.2 37.7 7.48 0.294
01:06 1023 30.21 852 25.16 7.1 44.8 76 3.1 37.6 7.45 0.293
01:07 1023 30.21 852 25.16 7.1 44.8 75 3 37.4 7.45 0.293
01:08 1023 30.21 852 25.16 7.1 44.8 76 3.1 37.6 7.46 0.294
01:09 1023 30.21 852 25.16 7 44.6 76 3.1 37.5 7.4 0.291
01:10 1023 30.21 852 25.16 6.9 44.5 76 3 37.3 7.28 0.287
01:11 1023 30.21 852 25.16 6.8 44.2 76 2.9 37.2 7.18 0.283
01:12 1023 30.21 852 25.16 6.7 44 76 2.8 37 7.04 0.277
01:13 1023 30.21 852 25.16 6.7 44.1 76 2.8 37.1 7.05 0.278
01:14 1023 30.21 852 25.16 6.7 44 76 2.8 37 7.03 0.277
01:15 1023 30.21 852 25.16 6.7 44 76 2.7 36.9 7.05 0.278
01:16 1023 30.21 852 25.16 6.7 44 76 2.7 36.9 7.03 0.277
01:17 1023 30.21 852 25.16 6.6 43.9 75 2.5 36.5 6.952 0.274
01:18 1023 30.21 852 25.16 6.6 43.8 74 2.3 36.2 6.946 0.273
01:19 1023 30.21 852 25.16 6.6 43.9 74 2.3 36.2 6.974 0.275
01:20 1023 30.21 852 25.16 6.7 44.1 73 2.3 36.2 7.04 0.277
01:21 1023 30.21 852 25.16 6.8 44.3 73 2.3 36.2 7.16 0.282
01:22 1023 30.21 852 25.16 6.9 44.5 73 2.3 36.2 7.22 0.284
01:23 1023 30.21 852 25.16 7 44.6 72 2.4 36.2 7.3 0.287
01:24 1023 30.21 852 25.16 7 44.5 72 2.3 36.1 7.3 0.287
01:25 1023 30.21 852 25.16 7 44.6 71 2.2 35.9 7.32 0.288
01:26 1023 30.21 852 25.16 7 44.6 71 2.2 36 7.36 0.29
01:27 1023 30.21 852 25.16 7 44.6 71 2.1 35.7 7.32 0.288
01:28 1023 30.21 852 25.16 7 44.6 71 2.1 35.7 7.32 0.288
01:29 1023 30.21 852 25.16 6.9 44.5 71 2 35.5 7.3 0.287
01:30 1023 30.21 852 25.16 6.9 44.4 71 2 35.5 7.26 0.286
01:31 1023 30.21 853 25.19 6.9 44.4 70 1.9 35.4 7.22 0.284
01:32 1023 30.21 853 25.19 6.9 44.4 71 2 35.6 7.24 0.285
01:33 1023 30.21 853 25.19 6.7 44.1 72 2.1 35.7 7.12 0.28
01:34 1023 30.21 853 25.19 6.5 43.8 72 1.9 35.4 6.957 0.274
01:35 1023 30.21 853 25.19 6.5 43.7 72 1.8 35.2 6.901 0.272
01:36 1023 30.21 853 25.19 6.5 43.8 71 1.7 35.1 6.861 0.27
01:37 1023 30.21 853 25.19 6.6 43.9 72 1.8 35.3 6.935 0.273
01:38 1023 30.21 853 25.19 6.5 43.7 71 1.7 35.1 6.912 0.272
01:39 1023 30.21 853 25.19 6.6 43.8 71 1.8 35.2 6.906 0.272
01:40 1023 30.21 853 25.19 6.7 44 71 1.7 35 6.986 0.275
01:41 1023 30.21 853 25.19 6.7 44.1 71 1.9 35.4 7.04 0.277
01:42 1023 30.21 853 25.19 6.6 43.9 71 1.8 35.2 6.963 0.274
01:43 1023 30.21 853 25.19 6.5 43.7 71 1.7 35 6.878 0.271
01:44 1023 30.21 852 25.16 6.5 43.8 71 1.7 35.1 6.861 0.27
01:45 1023 30.21 853 25.19 6.4 43.6 72 1.8 35.2 6.822 0.269
01:46 1023 30.21 853 25.19 6.4 43.5 72 1.7 35.1 6.772 0.267
01:47 1023 30.21 853 25.19 6.4 43.5 72 1.7 35.1 6.761 0.266
01:48 1023 30.21 853 25.19 6.3 43.3 71 1.5 34.8 6.704 0.264
01:49 1023 30.21 853 25.19 6.3 43.3 72 1.5 34.8 6.655 0.262
01:50 1023 30.21 853 25.19 6.3 43.3 72 1.5 34.7 6.593 0.26
01:51 1023 30.21 853 25.19 6.2 43.2 72 1.5 34.7 6.593 0.26
01:52 1023 30.21 853 25.19 6.2 43.1 72 1.4 34.6 6.56 0.258
01:53 1023 30.21 853 25.19 6.2 43.1 72 1.5 34.7 6.526 0.257
01:54 1023 30.21 853 25.19 6.2 43.1 71 1.4 34.5 6.56 0.258
01:55 1023 30.21 853 25.19 6.2 43.1 72 1.4 34.6 6.56 0.258
01:56 1023 30.21 853 25.19 6.1 43 72 1.5 34.7 6.521 0.257
01:57 1023 30.21 853 25.19 6 42.9 73 1.6 34.8 6.436 0.253
01:58 1023 30.21 853 25.19 5.9 42.7 73 1.5 34.6 6.363 0.251
01:59 1023 30.21 853 25.19 5.9 42.7 73 1.5 34.6 6.307 0.248
02:00 1023 30.21 853 25.19 5.9 42.6 73 1.4 34.6 6.284 0.247
02:01 1023 30.21 853 25.19 5.9 42.6 73 1.3 34.4 6.256 0.246
02:02 1023 30.21 853 25.19 5.9 42.6 73 1.4 34.5 6.262 0.247
02:03 1023 30.21 853 25.19 5.9 42.5 72 1.2 34.2 6.206 0.244
02:04 1023 30.21 853 25.19 5.9 42.6 73 1.3 34.4 6.269 0.247
02:05 1023 30.21 853 25.19 5.9 42.6 73 1.4 34.5 6.247 0.246
02:06 1023 30.21 853 25.19 5.9 42.6 72 1.1 34.1 6.247 0.246
02:07 1023 30.21 853 25.19 5.9 42.7 72 1.2 34.2 6.299 0.248
02:08 1024 30.24 853 25.19 6 42.7 72 1.2 34.2 6.328 0.249
02:09 1024 30.24 853 25.19 6 42.8 71 1.1 34 6.362 0.25
02:10 1024 30.24 853 25.19 6 42.8 72 1.2 34.2 6.352 0.25
02:11 1024 30.24 853 25.19 6 42.8 72 1.3 34.3 6.318 0.249
02:12 1024 30.24 853 25.19 5.9 42.6 72 1.2 34.1 6.295 0.248
02:13 1023 30.21 853 25.19 5.9 42.6 72 1.3 34.3 6.256 0.246
02:14 1024 30.24 853 25.19 5.8 42.5 73 1.3 34.4 6.228 0.245
02:15 1024 30.24 853 25.19 5.7 42.3 74 1.4 34.4 6.143 0.242
02:16 1024 30.24 853 25.19 5.5 42 74 1.3 34.4 5.995 0.236
02:17 1024 30.24 853 25.19 5.4 41.7 75 1.3 34.4 5.797 0.228
02:18 1024 30.24 853 25.19 5.2 41.4 75 1.2 34.1 5.696 0.224
02:19 1024 30.24 853 25.19 5.2 41.4 75 1.1 34 5.634 0.222
02:20 1024 30.24 853 25.19 5.2 41.4 74 1 33.9 5.617 0.221
02:21 1024 30.24 853 25.19 5.3 41.5 74 1.1 33.9 5.635 0.222
02:22 1024 30.24 853 25.19 5.3 41.5 74 1.1 33.9 5.646 0.222
02:23 1024 30.24 853 25.19 5.2 41.4 74 1 33.9 5.641 0.222
02:24 1024 30.24 853 25.19 5.3 41.5 74 1.1 33.9 5.664 0.223
02:25 1024 30.24 853 25.19 5.3 41.6 74 1.1 34 5.704 0.225
02:26 1024 30.24 853 25.19 5.4 41.7 74 1.1 34 5.749 0.226
02:27 1024 30.24 853 25.19 5.4 41.8 74 1.1 34 5.806 0.229
02:28 1024 30.24 853 25.19 5.5 42 73 1.1 34 5.925 0.233
02:29 1024 30.24 853 25.19 5.7 42.2 73 1.2 34.2 6.027 0.237
02:30 1024 30.24 853 25.19 5.7 42.2 74 1.3 34.4 6.044 0.238
02:31 1024 30.24 853 25.19 5.6 42.1 74 1.4 34.5 6.055 0.238
02:32 1024 30.24 853 25.19 5.7 42.2 74 1.4 34.6 6.044 0.238
02:33 1024 30.24 853 25.19 5.7 42.3 74 1.4 34.6 6.072 0.239
02:34 1024 30.24 853 25.19 5.8 42.5 74 1.6 34.8 6.152 0.242
02:35 1024 30.24 853 25.19 5.8 42.4 74 1.5 34.7 6.163 0.243
02:36 1024 30.24 853 25.19 5.8 42.5 73 1.4 34.6 6.192 0.244
02:37 1024 30.24 853 25.19 5.9 42.6 73 1.5 34.7 6.231 0.245
02:38 1024 30.24 853 25.19 5.9 42.6 74 1.6 34.8 6.248 0.246
02:39 1024 30.24 853 25.19 5.9 42.5 74 1.5 34.7 6.243 0.246
02:40 1024 30.24 853 25.19 5.8 42.5 73 1.4 34.6 6.22 0.245
02:41 1024 30.24 853 25.19 5.8 42.4 73 1.4 34.5 6.197 0.244
02:42 1024 30.24 853 25.19 5.8 42.4 74 1.5 34.7 6.181 0.243
02:43 1024 30.24 853 25.19 5.8 42.4 74 1.5 34.7 6.135 0.242
02:44 1024 30.24 853 25.19 5.7 42.3 74 1.5 34.6 6.09 0.24
02:45 1024 30.24 853 25.19 5.7 42.2 74 1.4 34.6 6.073 0.239
02:46 1024 30.24 853 25.19 5.7 42.2 74 1.4 34.6 6.022 0.237
02:47 1024 30.24 853 25.19 5.6 42.1 74 1.3 34.4 5.988 0.236
02:48 1024 30.24 853 25.19 5.6 42.1 74 1.4 34.5 5.994 0.236
02:49 1024 30.24 853 25.19 5.6 42 75 1.4 34.6 6.011 0.237
02:50 1024 30.24 853 25.19 5.5 42 75 1.5 34.7 5.96 0.235
02:51 1024 30.24 853 25.19 5.4 41.8 75 1.4 34.6 5.875 0.231
02:52 1024 30.24 853 25.19 5.4 41.7 76 1.5 34.6 5.83 0.23
02:53 1024 30.24 853 25.19 5.4 41.7 76 1.4 34.6 5.819 0.229
02:54 1024 30.24 853 25.19 5.4 41.7 76 1.5 34.6 5.813 0.229
02:55 1024 30.24 853 25.19 5.4 41.7 76 1.5 34.7 5.791 0.228
02:56 1024 30.24 853 25.19 5.3 41.6 76 1.5 34.7 5.745 0.226
02:57 1024 30.24 853 25.19 5.3 41.6 76 1.4 34.6 5.717 0.225
02:58 1024 30.24 853 25.19 5.3 41.5 76 1.4 34.6 5.728 0.226
02:59 1024 30.24 853 25.19 5.3 41.5 77 1.5 34.7 5.678 0.224
03:00 1024 30.24 853 25.19 5.2 41.4 77 1.5 34.7 5.632 0.222
03:01 1024 30.24 853 25.19 5.1 41.2 78 1.5 34.7 5.576 0.22
03:02 1024 30.24 853 25.19 5 41 78 1.5 34.7 5.468 0.215
03:03 1024 30.24 853 25.19 4.9 40.9 78 1.4 34.6 5.417 0.213
03:04 1024 30.24 853 25.19 4.9 40.8 79 1.5 34.7 5.366 0.211
03:05 1024 30.24 853 25.19 4.8 40.7 79 1.4 34.5 5.27 0.207
03:06 1024 30.24 853 25.19 4.8 40.7 79 1.4 34.6 5.197 0.205
03:07 1024 30.24 853 25.19 4.8 40.6 79 1.4 34.6 5.191 0.204
03:08 1024 30.24 853 25.19 4.8 40.6 79 1.5 34.6 5.146 0.203
03:09 1024 30.24 853 25.19 4.7 40.5 79 1.4 34.6 5.129 0.202
03:10 1024 30.24 853 25.19 4.8 40.6 79 1.4 34.5 5.185 0.204
03:11 1024 30.24 853 25.19 4.8 40.7 78 1.3 34.4 5.174 0.204
03:12 1024 30.24 853 25.19 4.9 40.7 78 1.4 34.5 5.225 0.206
03:13 1024 30.24 853 25.19 4.8 40.7 78 1.3 34.4 5.248 0.207
03:14 1024 30.24 853 25.19 4.8 40.7 78 1.3 34.4 5.202 0.205
03:15 1024 30.24 853 25.19 4.8 40.7 78 1.4 34.5 5.242 0.206
03:16 1024 30.24 853 25.19 4.9 40.7 78 1.4 34.6 5.259 0.207
03:17 1024 30.24 853 25.19 4.8 40.7 79 1.4 34.6 5.236 0.206
03:18 1024 30.24 853 25.19 4.9 40.7 79 1.5 34.7 5.242 0.206
03:19 1024 30.24 853 25.19 4.8 40.6 79 1.4 34.6 5.197 0.205
03:20 1024 30.24 853 25.19 4.7 40.5 80 1.5 34.7 5.089 0.2
03:21 1024 30.24 853 25.19 4.6 40.3 80 1.4 34.6 5.033 0.198
03:22 1024 30.24 853 25.19 4.5 40.1 80 1.4 34.5 4.937 0.194
03:23 1024 30.24 853 25.19 4.5 40.1 80 1.4 34.5 4.914 0.193
03:24 1024 30.24 853 25.19 4.4 40 80 1.3 34.4 4.874 0.192
03:25 1024 30.24 853 25.19 4.4 40 80 1.3 34.4 4.835 0.19
03:26 1024 30.24 853 25.19 4.4 39.9 80 1.3 34.4 4.795 0.189
03:27 1024 30.24 853 25.19 4.3 39.8 80 1.3 34.3 4.784 0.188
03:28 1024 30.24 853 25.19 4.3 39.8 80 1.2 34.2 4.761 0.187
03:29 1024 30.24 853 25.19 4.3 39.8 80 1.3 34.3 4.733 0.186
03:30 1024 30.24 853 25.19 4.3 39.8 80 1.2 34.2 4.739 0.187
03:31 1024 30.24 853 25.19 4.3 39.8 80 1.2 34.1 4.716 0.186
03:32 1024 30.24 853 25.19 4.4 39.9 80 1.2 34.1 4.744 0.187
03:33 1024 30.24 853 25.19 4.5 40 80 1.2 34.2 4.795 0.189
03:34 1024 30.24 853 25.19 4.5 40.1 79 1.2 34.2 4.846 0.191
03:35 1024 30.24 853 25.19 4.5 40.1 79 1.2 34.2 4.891 0.193
03:36 1024 30.24 853 25.19 4.5 40.2 79 1.2 34.2 4.925 0.194
03:37 1024 30.24 853 25.19 4.6 40.3 79 1.2 34.2 4.959 0.195
03:38 1024 30.24 853 25.19 4.6 40.3 79 1.2 34.1 4.982 0.196
03:39 1024 30.24 853 25.19 4.6 40.4 78 1.2 34.1 5.072 0.2
03:40 1024 30.24 853 25.19 4.7 40.4 78 1.2 34.2 5.089 0.2
03:41 1024 30.24 853 25.19 4.7 40.4 78 1.2 34.2 5.061 0.199
03:42 1024 30.24 853 25.19 4.7 40.5 78 1.2 34.2 5.101 0.201
03:43 1024 30.24 853 25.19 4.6 40.4 78 1.2 34.2 5.072 0.2
03:44 1024 30.24 853 25.19 4.6 40.3 78 1.2 34.1 5.004 0.197
03:45 1024 30.24 854 25.22 4.6 40.3 78 1.2 34.1 4.993 0.197
03:46 1024 30.24 854 25.22 4.5 40.2 79 1.1 34 4.976 0.196
03:47 1024 30.24 854 25.22 4.5 40.2 78 1.1 34 4.971 0.196
03:48 1024 30.24 854 25.22 4.6 40.2 78 1.1 34 4.937 0.194
03:49 1024 30.24 854 25.22 4.5 40.1 79 1.1 34 4.937 0.194
03:50 1024 30.24 854 25.22 4.4 40 79 1 33.9 4.869 0.192
03:51 1024 30.24 854 25.22 4.4 40 79 1.1 33.9 4.857 0.191
03:52 1024 30.24 854 25.22 4.4 39.9 79 1 33.8 4.773 0.188
03:53 1024 30.24 854 25.22 4.4 39.9 79 1.1 33.9 4.778 0.188
03:54 1024 30.24 854 25.22 4.3 39.8 79 1 33.8 4.739 0.187
03:55 1024 30.24 854 25.22 4.2 39.6 79 1 33.8 4.671 0.184
03:56 1024 30.24 854 25.22 4.2 39.6 80 1 33.8 4.603 0.181
03:57 1025 30.27 854 25.22 4.1 39.4 80 0.9 33.7 4.563 0.18
03:58 1025 30.27 854 25.22 4.1 39.3 80 0.9 33.7 4.518 0.178
03:59 1025 30.27 854 25.22 4 39.2 80 0.9 33.7 4.444 0.175
04:00 1025 30.27 854 25.22 4 39.1 80 0.9 33.6 4.388 0.173
04:01 1025 30.27 854 25.22 3.9 39.1 80 0.9 33.6 4.343 0.171
04:02 1025 30.27 854 25.22 3.9 39 81 0.9 33.5 4.303 0.169
04:03 1025 30.27 854 25.22 3.9 39 81 0.9 33.5 4.32 0.17
04:04 1025 30.27 854 25.22 3.9 39 80 0.8 33.5 4.303 0.169
04:05 1025 30.27 854 25.22 3.9 39.1 80 0.8 33.4 4.309 0.17
04:06 1025 30.27 854 25.22 4 39.2 80 0.8 33.4 4.343 0.171
04:07 1025 30.27 854 25.22 4 39.1 80 0.8 33.4 4.331 0.171
04:08 1025 30.27 854 25.22 4 39.2 79 0.8 33.4 4.365 0.172
04:09 1025 30.27 854 25.22 4 39.1 79 0.7 33.3 4.348 0.171
04:10 1025 30.27 854 25.22 4 39.2 79 0.7 33.2 4.365 0.172
04:11 1025 30.27 854 25.22 4.1 39.3 78 0.6 33.1 4.41 0.174
04:12 1025 30.27 854 25.22 4.1 39.4 79 0.7 33.3 4.428 0.174
04:13 1025 30.27 854 25.22 4.1 39.3 79 0.7 33.3 4.463 0.176
04:14 1025 30.27 854 25.22 4.1 39.4 78 0.6 33 4.502 0.177
04:15 1025 30.27 854 25.22 4.3 39.7 77 0.6 33.1 4.627 0.182
04:16 1025 30.27 854 25.22 4.4 39.9 77 0.8 33.4 4.73 0.186
04:17 1025 30.27 854 25.22 4.4 39.8 78 0.8 33.4 4.724 0.186
04:18 1025 30.27 854 25.22 4.3 39.7 78 0.8 33.4 4.651 0.183
04:19 1025 30.27 854 25.22 4.1 39.4 79 0.7 33.3 4.561 0.18
04:20 1025 30.27 854 25.22 4 39.2 79 0.6 33.1 4.442 0.175
04:21 1025 30.27 854 25.22 4 39.2 79 0.7 33.2 4.386 0.173
04:22 1025 30.27 854 25.22 4 39.2 79 0.6 33.1 4.375 0.172
04:23 1025 30.27 854 25.22 4 39.2 78 0.5 33 4.409 0.174
04:24 1025 30.27 854 25.22 4.1 39.4 77 0.5 32.9 4.489 0.177
04:25 1025 30.27 854 25.22 4.2 39.5 77 0.5 33 4.551 0.179
04:26 1025 30.27 854 25.22 4.2 39.5 77 0.6 33 4.5 0.177
04:27 1025 30.27 854 25.22 4.1 39.5 78 0.6 33 4.568 0.18
04:28 1025 30.27 854 25.22 4.1 39.5 78 0.6 33 4.477 0.176
04:29 1025 30.27 854 25.22 4.1 39.5 78 0.6 33 4.505 0.177
04:30 1025 30.27 854 25.22 4.1 39.4 77 0.5 33 4.517 0.178
04:31 1025 30.27 854 25.22 4.1 39.4 77 0.5 33 4.506 0.177
04:32 1025 30.27 854 25.22 4.1 39.4 77 0.5 32.9 4.494 0.177
04:33 1025 30.27 854 25.22 4.1 39.4 77 0.5 32.8 4.461 0.176
04:34 1025 30.27 854 25.22 4.1 39.4 77 0.5 32.9 4.478 0.176
04:35 1025 30.27 854 25.22 4.1 39.4 77 0.5 32.9 4.478 0.176
04:36 1025 30.27 854 25.22 4.1 39.3 77 0.4 32.8 4.495 0.177
04:37 1025 30.27 854 25.22 4.1 39.3 77 0.5 32.9 4.467 0.176
04:38 1025 30.27 854 25.22 4 39.2 78 0.5 32.8 4.433 0.175
04:39 1025 30.27 854 25.22 4 39.1 78 0.4 32.8 4.371 0.172
04:40 1025 30.27 854 25.22 4 39.2 78 0.4 32.8 4.394 0.173
04:41 1025 30.27 854 25.22 4.1 39.3 77 0.4 32.7 4.411 0.174
04:42 1025 30.27 854 25.22 4.2 39.5 77 0.4 32.7 4.519 0.178
04:43 1025 30.27 854 25.22 4.2 39.6 76 0.4 32.6 4.564 0.18
04:44 1025 30.27 854 25.22 4.3 39.8 76 0.4 32.7 4.677 0.184
04:45 1025 30.27 854 25.22 4.3 39.8 76 0.4 32.8 4.689 0.185
04:46 1025 30.27 854 25.22 4.3 39.8 76 0.4 32.7 4.717 0.186
04:47 1025 30.27 854 25.22 4.3 39.8 76 0.4 32.7 4.728 0.186
04:48 1025 30.27 854 25.22 4.4 39.9 76 0.4 32.8 4.736 0.186
04:49 1025 30.27 854 25.22 4.4 39.8 75 0.4 32.7 4.73 0.186
04:50 1025 30.27 854 25.22 4.4 39.9 75 0.4 32.8 4.747 0.187
04:51 1025 30.27 854 25.22 4.4 39.8 76 0.4 32.8 4.741 0.187
04:52 1025 30.27 854 25.22 4.3 39.8 76 0.4 32.8 4.713 0.186
04:53 1025 30.27 854 25.22 4.3 39.7 76 0.4 32.8 4.668 0.184
04:54 1025 30.27 854 25.22 4.2 39.6 76 0.4 32.7 4.663 0.184
04:55 1025 30.27 854 25.22 4.3 39.7 76 0.4 32.8 4.635 0.182
04:56 1025 30.27 854 25.22 4.2 39.6 76 0.4 32.8 4.663 0.184
04:57 1025 30.27 854 25.22 4.3 39.7 76 0.5 32.8 4.669 0.184
04:58 1025 30.27 854 25.22 4.3 39.7 77 0.5 32.9 4.657 0.183
04:59 1025 30.27 854 25.22 4.3 39.7 76 0.4 32.8 4.658 0.183
05:00 1025 30.27 854 25.22 4.3 39.7 76 0.4 32.7 4.692 0.185
05:01 1025 30.27 854 25.22 4.3 39.8 76 0.4 32.8 4.715 0.186
05:02 1025 30.27 854 25.22 4.3 39.8 76 0.4 32.7 4.744 0.187
05:03 1025 30.27 854 25.22 4.3 39.8 76 0.5 32.8 4.75 0.187
05:04 1025 30.27 854 25.22 4.3 39.8 75 0.4 32.6 4.739 0.187
05:05 1025 30.27 854 25.22 4.4 39.9 75 0.3 32.6 4.779 0.188
05:06 1025 30.27 854 25.22 4.4 39.9 75 0.3 32.6 4.785 0.188
05:07 1025 30.27 854 25.22 4.5 40.1 75 0.4 32.7 4.824 0.19
05:08 1025 30.27 854 25.22 4.5 40.1 75 0.4 32.6 4.808 0.189
05:09 1025 30.27 854 25.22 4.5 40.1 74 0.3 32.5 4.848 0.191
05:10 1025 30.27 854 25.22 4.5 40 74 0.3 32.6 4.853 0.191
05:11 1025 30.27 854 25.22 4.4 40 75 0.3 32.6 4.791 0.189
05:12 1025 30.27 854 25.22 4.4 40 75 0.3 32.6 4.797 0.189
05:13 1025 30.27 854 25.22 4.5 40 74 0.3 32.5 4.837 0.19
05:14 1025 30.27 854 25.22 4.5 40.1 75 0.4 32.7 4.877 0.192
05:15 1025 30.27 854 25.22 4.5 40 75 0.4 32.8 4.826 0.19
05:16 1025 30.27 854 25.22 4.4 39.9 76 0.4 32.8 4.741 0.187
05:17 1025 30.27 854 25.22 4.3 39.7 76 0.4 32.7 4.724 0.186
05:18 1025 30.27 854 25.22 4.2 39.6 76 0.4 32.6 4.673 0.184
05:19 1025 30.27 854 25.22 4.2 39.6 76 0.4 32.7 4.6 0.181
05:20 1025 30.27 854 25.22 4.2 39.6 76 0.4 32.7 4.6 0.181
05:21 1025 30.27 854 25.22 4.2 39.6 75 0.3 32.5 4.594 0.181
05:22 1025 30.27 854 25.22 4.3 39.7 75 0.2 32.4 4.606 0.181
05:23 1025 30.27 854 25.22 4.3 39.7 75 0.2 32.4 4.64 0.183
05:24 1025 30.27 854 25.22 4.3 39.7 75 0.2 32.3 4.668 0.184
05:25 1025 30.27 854 25.22 4.3 39.8 75 0.2 32.4 4.674 0.184
05:26 1025 30.27 854 25.22 4.4 39.8 75 0.3 32.5 4.725 0.186
05:27 1025 30.27 855 25.25 4.3 39.8 75 0.2 32.4 4.708 0.185
05:28 1025 30.27 855 25.25 4.3 39.7 75 0.2 32.4 4.685 0.184
05:29 1025 30.27 855 25.25 4.3 39.7 75 0.2 32.4 4.68 0.184
05:30 1025 30.27 855 25.25 4.3 39.7 75 0.2 32.3 4.674 0.184
05:31 1025 30.27 855 25.25 4.3 39.7 75 0.2 32.4 4.697 0.185
05:32 1025 30.27 855 25.25 4.3 39.7 75 0.2 32.4 4.663 0.184
05:33 1025 30.27 855 25.25 4.3 39.8 75 0.2 32.4 4.702 0.185
05:34 1025 30.27 855 25.25 4.3 39.7 75 0.2 32.3 4.691 0.185
05:35 1025 30.27 855 25.25 4.3 39.8 75 0.3 32.5 4.669 0.184
05:36 1025 30.27 855 25.25 4.2 39.6 75 0.2 32.4 4.663 0.184
05:37 1025 30.27 855 25.25 4.2 39.5 76 0.2 32.4 4.601 0.181
05:38 1025 30.27 855 25.25 4.1 39.3 76 0.1 32.3 4.51 0.178
05:39 1025 30.27 855 25.25 4.1 39.4 76 0.2 32.3 4.482 0.176
05:40 1025 30.27 855 25.25 4 39.2 76 0.2 32.3 4.431 0.174
05:41 1025 30.27 855 25.25 4 39.3 76 0.2 32.4 4.397 0.173
05:42 1025 30.27 855 25.25 4 39.2 76 0.1 32.3 4.414 0.174
05:43 1025 30.27 855 25.25 4.1 39.3 76 0.2 32.3 4.499 0.177
05:44 1025 30.27 855 25.25 4.2 39.5 75 0.2 32.3 4.55 0.179
05:45 1025 30.27 855 25.25 4.2 39.6 75 0.2 32.4 4.59 0.181
05:46 1025 30.27 855 25.25 4.2 39.6 75 0.2 32.3 4.657 0.183
05:47 1025 30.27 855 25.25 4.3 39.8 75 0.3 32.5 4.725 0.186
05:48 1025 30.27 855 25.25 4.3 39.7 75 0.2 32.4 4.674 0.184
05:49 1025 30.27 855 25.25 4.2 39.6 75 0.3 32.5 4.674 0.184
05:50 1025 30.27 855 25.25 4.2 39.5 76 0.3 32.5 4.607 0.181
05:51 1025 30.27 855 25.25 4 39.3 77 0.3 32.5 4.454 0.175
05:52 1026 30.3 855 25.25 3.8 38.9 78 0.3 32.5 4.278 0.168
05:53 1026 30.3 855 25.25 3.7 38.7 78 0.3 32.5 4.176 0.164
05:54 1026 30.3 855 25.25 3.5 38.3 79 0.3 32.5 4.018 0.158
05:55 1026 30.3 855 25.25 3.5 38.2 80 0.3 32.6 3.916 0.154
05:56 1026 30.3 855 25.25 3.4 38.2 80 0.2 32.4 3.916 0.154
05:57 1026 30.3 855 25.25 3.5 38.4 79 0.3 32.6 3.939 0.155
05:58 1026 30.3 855 25.25 3.5 38.3 80 0.3 32.6 4.012 0.158
05:59 1026 30.3 855 25.25 3.5 38.4 79 0.3 32.5 4.046 0.159
06:00 1026 30.3 855 25.25 3.6 38.5 79 0.3 32.5 4.097 0.161
06:01 1026 30.3 855 25.25 3.7 38.6 79 0.4 32.7 4.131 0.163
06:02 1026 30.3 855 25.25 3.6 38.5 80 0.4 32.8 4.131 0.163
06:03 1026 30.3 855 25.25 3.6 38.5 79 0.4 32.7 4.137 0.163
06:04 1026 30.3 855 25.25 3.6 38.5 79 0.3 32.6 4.154 0.164
06:05 1026 30.3 855 25.25 3.7 38.6 79 0.4 32.7 4.177 0.164
06:06 1026 30.3 855 25.25 3.8 38.8 79 0.4 32.7 4.216 0.166
06:07 1026 30.3 855 25.25 3.8 38.8 79 0.5 32.8 4.267 0.168
06:08 1026 30.3 855 25.25 3.8 38.9 78 0.4 32.7 4.307 0.17
06:09 1026 30.3 855 25.25 3.9 39 79 0.5 32.9 4.346 0.171
06:10 1026 30.3 855 25.25 3.9 39.1 78 0.5 32.8 4.426 0.174
06:11 1026 30.3 855 25.25 4 39.3 77 0.4 32.8 4.476 0.176
06:12 1026 30.3 855 25.25 4.1 39.4 76 0.4 32.7 4.556 0.179
06:13 1026 30.3 855 25.25 4.2 39.6 77 0.5 32.9 4.68 0.184
06:14 1026 30.3 855 25.25 4.2 39.6 77 0.5 32.9 4.737 0.186
06:15 1026 30.3 855 25.25 4.3 39.7 77 0.6 33 4.754 0.187
06:16 1026 30.3 855 25.25 4.3 39.8 77 0.7 33.2 4.816 0.19
06:17 1026 30.3 855 25.25 4.4 39.9 77 0.7 33.2 4.861 0.191
06:18 1026 30.3 855 25.25 4.5 40 77 0.7 33.3 4.907 0.193
06:19 1026 30.3 855 25.25 4.5 40.2 76 0.7 33.2 4.986 0.196
06:20 1026 30.3 855 25.25 4.6 40.3 76 0.7 33.3 5.054 0.199
06:21 1026 30.3 855 25.25 4.7 40.4 76 0.9 33.6 5.122 0.202
06:22 1026 30.3 855 25.25 4.7 40.4 76 0.9 33.5 5.156 0.203
06:23 1026 30.3 855 25.25 4.7 40.4 76 0.8 33.5 5.173 0.204
06:24 1026 30.3 855 25.25 4.7 40.5 76 0.8 33.5 5.167 0.203
06:25 1026 30.3 855 25.25 4.8 40.6 76 0.9 33.5 5.195 0.205
06:26 1026 30.3 855 25.25 4.8 40.7 75 0.9 33.6 5.274 0.208
06:27 1026 30.3 855 25.25 4.9 40.7 76 1 33.9 5.337 0.21
06:28 1026 30.3 855 25.25 4.9 40.8 76 1.1 33.9 5.393 0.212
06:29 1026 30.3 855 25.25 5 40.9 76 1.1 33.9 5.416 0.213
06:30 1026 30.3 855 25.25 5 41 75 1 33.9 5.45 0.215
06:31 1026 30.3 855 25.25 5.1 41.2 76 1.1 34 5.49 0.216
06:32 1026 30.3 855 25.25 5.2 41.3 75 1.1 33.9 5.586 0.22
06:33 1026 30.3 855 25.25 5.2 41.4 76 1.3 34.3 5.625 0.221
06:34 1026 30.3 855 25.25 5.3 41.5 75 1.3 34.3 5.693 0.224
06:35 1026 30.3 855 25.25 5.3 41.6 75 1.2 34.1 5.71 0.225
06:36 1026 30.3 855 25.25 5.4 41.7 75 1.3 34.3 5.744 0.226
06:37 1026 30.3 855 25.25 5.4 41.7 74 1.1 33.9 5.801 0.228
06:38 1026 30.3 855 25.25 5.5 41.9 74 1.2 34.2 5.886 0.232
06:39 1026 30.3 855 25.25 5.6 42 73 1.1 34 5.959 0.235
06:40 1026 30.3 855 25.25 5.7 42.2 73 1.2 34.1 6.01 0.237
06:41 1026 30.3 855 25.25 5.7 42.3 72 1.2 34.1 6.089 0.24
06:42 1026 30.3 855 25.25 5.8 42.5 73 1.4 34.5 6.157 0.242
06:43 1026 30.3 855 25.25 5.9 42.5 73 1.3 34.4 6.22 0.245
06:44 1026 30.3 855 25.25 5.9 42.7 72 1.3 34.4 6.242 0.246
06:45 1026 30.3 855 25.25 6 42.8 72 1.4 34.5 6.338 0.25
06:46 1026 30.3 855 25.25 6 42.8 72 1.3 34.3 6.384 0.251
06:47 1026 30.3 855 25.25 6.1 43 71 1.3 34.4 6.469 0.255
06:48 1026 30.3 855 25.25 6.2 43.2 72 1.5 34.7 6.535 0.257
06:49 1026 30.3 855 25.25 6.2 43.2 71 1.3 34.4 6.614 0.26
06:50 1026 30.3 855 25.25 6.3 43.3 70 1.3 34.3 6.671 0.263
06:51 1026 30.3 855 25.25 6.4 43.5 70 1.3 34.4 6.726 0.265
06:52 1026 30.3 855 25.25 6.5 43.6 70 1.5 34.7 6.788 0.267
06:53 1026 30.3 855 25.25 6.5 43.8 70 1.5 34.6 6.89 0.271
06:54 1026 30.3 855 25.25 6.6 43.9 70 1.5 34.7 6.969 0.274
06:55 1026 30.3 855 25.25 6.7 44.1 70 1.6 34.9 7.02 0.276
06:56 1026 30.3 855 25.25 6.8 44.2 70 1.7 35 7.12 0.28
06:57 1026 30.3 855 25.25 6.9 44.4 70 1.7 35.1 7.17 0.282
06:58 1026 30.3 855 25.25 6.9 44.4 69 1.6 34.9 7.2 0.283
06:59 1026 30.3 855 25.25 6.9 44.5 70 1.8 35.3 7.27 0.286
07:00 1026 30.3 855 25.25 7 44.6 69 1.7 35.1 7.33 0.289
07:01 1026 30.3 855 25.25 7.1 44.8 69 1.9 35.4 7.41 0.292
07:02 1026 30.3 855 25.25 7.2 44.9 69 1.8 35.3 7.53 0.296
07:03 1026 30.3 855 25.25 7.2 45 68 1.8 35.3 7.61 0.3
07:04 1026 30.3 856 25.28 7.3 45.2 68 1.9 35.5 7.67 0.302
07:05 1026 30.3 856 25.28 7.4 45.3 69 2.1 35.9 7.73 0.304
07:06 1026 30.3 856 25.28 7.4 45.4 70 2.4 36.2 7.83 0.308
07:07 1026 30.3 856 25.28 7.6 45.6 70 2.4 36.3 7.91 0.311
07:08 1026 30.3 856 25.28 7.6 45.7 68 2.1 35.7 7.99 0.315
07:09 1026 30.3 856 25.28 7.7 45.9 67 2 35.6 8.03 0.316
07:10 1026 30.3 856 25.28 7.8 46.1 68 2.2 36 8.14 0.32
07:11 1026 30.3 856 25.28 7.9 46.3 66 2 35.6 8.24 0.324
07:12 1026 30.3 856 25.28 8 46.4 67 2.3 36.1 8.34 0.328
07:13 1026 30.3 856 25.28 8.1 46.5 66 2.2 36 8.48 0.334
07:14 1026 30.3 856 25.28 8.2 46.7 66 2.1 35.8 8.55 0.337
07:15 1026 30.3 856 25.28 8.3 47 65 2.1 35.9 8.66 0.341
07:16 1026 30.3 856 25.28 8.4 47 66 2.4 36.4 8.74 0.344
07:17 1026 30.3 856 25.28 8.4 47.2 65 2.2 36 8.82 0.347
07:18 1026 30.3 856 25.28 8.5 47.3 66 2.5 36.6 8.95 0.352
07:19 1026 30.3 856 25.28 8.6 47.4 65 2.5 36.4 8.99 0.354
07:20 1026 30.3 856 25.28 8.6 47.5 64 2.3 36.1 9.07 0.357
07:21 1026 30.3 856 25.28 8.7 47.6 66 2.7 36.9 9.14 0.36
07:22 1026 30.3 856 25.28 8.8 47.8 65 2.6 36.7 9.21 0.363
07:23 1026 30.3 856 25.28 8.8 47.8 63 2.1 35.8 9.27 0.365
07:24 1026 30.3 856 25.28 8.9 48 64 2.6 36.6 9.34 0.368
07:25 1027 30.33 856 25.28 8.9 48 63 2.3 36.1 9.39 0.37
07:26 1027 30.33 856 25.28 9 48.1 64 2.6 36.7 9.43 0.371
07:27 1027 30.33 856 25.28 9 48.3 62 2.1 35.7 9.52 0.375
07:28 1027 30.33 856 25.28 9.1 48.3 64 2.6 36.7 9.57 0.377
07:29 1027 30.33 856 25.28 9.1 48.4 64 2.7 36.8 9.67 0.381
07:30 1027 30.33 856 25.28 9.2 48.5 63 2.6 36.6 9.7 0.382
07:31 1027 30.33 856 25.28 9.2 48.6 65 3 37.4 9.79 0.385
07:32 1027 30.33 856 25.28 9.3 48.7 62 2.5 36.6 9.84 0.387
07:33 1027 30.33 856 25.28 9.4 48.8 61 2.3 36.2 9.86 0.388
07:34 1027 30.33 856 25.28 9.4 48.9 62 2.6 36.6 9.9 0.39
07:35 1027 30.33 856 25.28 9.4 49 63 2.8 37.1 9.96 0.392
07:36 1027 30.33 856 25.28 9.5 49.1 63 2.8 37.1 10.04 0.395
07:37 1027 30.33 856 25.28 9.5 49.1 61 2.5 36.4 10.08 0.397
07:38 1027 30.33 856 25.28 9.6 49.2 65 3.4 38.1 10.15 0.4
07:39 1027 30.33 856 25.28 9.6 49.3 64 3.1 37.7 10.19 0.401
07:40 1027 30.33 856 25.28 9.7 49.4 62 2.7 36.8 10.25 0.404
07:41 1027 30.33 856 25.28 9.7 49.5 64 3.4 38.1 10.36 0.408
07:42 1027 30.33 856 25.28 9.8 49.6 62 2.8 37.1 10.34 0.407
07:43 1027 30.33 856 25.28 9.8 49.7 62 2.9 37.3 10.41 0.41
07:44 1027 30.33 856 25.28 9.9 49.8 63 3.3 38 10.5 0.413
07:45 1027 30.33 856 25.28 9.9 49.9 60 2.5 36.6 10.53 0.415
07:46 1027 30.33 856 25.28 10 50 60 2.6 36.7 10.52 0.414
07:47 1027 30.33 856 25.28 10 50 61 2.9 37.3 10.57 0.416
07:48 1027 30.33 856 25.28 10.1 50.1 60 2.8 37 10.62 0.418
07:49 1027 30.33 856 25.28 10.1 50.2 62 3.1 37.6 10.68 0.42
07:50 1027 30.33 856 25.28 10.2 50.3 60 2.8 37.1 10.75 0.423
07:51 1027 30.33 856 25.28 10.2 50.3 61 2.9 37.3 10.73 0.422
07:52 1027 30.33 856 25.28 10.2 50.4 62 3.2 37.8 10.8 0.425
07:53 1027 30.33 856 25.28 10.3 50.5 60 2.8 37.1 10.81 0.426
07:54 1027 30.33 856 25.28 10.3 50.5 60 3 37.4 10.85 0.427
07:55 1027 30.33 856 25.28 10.3 50.6 64 3.8 38.8 10.88 0.428
07:56 1027 30.33 856 25.28 10.4 50.7 62 3.4 38.2 10.97 0.432
07:57 1027 30.33 856 25.28 10.5 50.9 62 3.7 38.6 11.05 0.435
07:58 1027 30.33 856 25.28 10.6 51 61 3.4 38.1 11.17 0.44
07:59 1027 30.33 856 25.28 10.6 51.1 60 3.3 38 11.22 0.442
08:00 1027 30.33 856 25.28 10.7 51.3 58 2.7 36.9 11.27 0.444
08:01 1027 30.33 856 25.28 10.8 51.4 59 3.2 37.8 11.36 0.447
08:02 1027 30.33 856 25.28 10.9 51.6 59 3.3 37.9 11.42 0.45
08:03 1027 30.33 856 25.28 11 51.7 61 3.9 39 11.53 0.454
08:04 1027 30.33 856 25.28 11.1 51.9 59 3.4 38 11.67 0.459
08:05 1027 30.33 856 25.28 11.2 52.1 58 3.2 37.8 11.77 0.463
08:06 1027 30.33 856 25.28 11.2 52.2 57 3 37.4 11.81 0.465
08:07 1027 30.33 856 25.28 11.3 52.3 56 2.9 37.2 11.82 0.465
08:08 1027 30.33 856 25.28 11.3 52.4 58 3.5 38.3 11.91 0.469
08:09 1027 30.33 856 25.28 11.4 52.5 61 4.2 39.6 11.93 0.47
08:10 1027 30.33 856 25.28 11.4 52.6 60 4 39.2 12.07 0.475
08:11 1027 30.33 856 25.28 11.5 52.8 57 3.3 38 12.13 0.478
08:12 1027 30.33 856 25.28 11.6 52.9 55 2.9 37.3 12.16 0.479
08:13 1027 30.33 856 25.28 11.6 52.8 52 2.2 36 12.14 0.478
08:14 1027 30.33 856 25.28 11.6 52.9 52 2.2 36 12.14 0.478
08:15 1027 30.33 856 25.28 11.6 52.9 53 2.5 36.5 12.12 0.477
08:16 1027 30.33 856 25.28 11.6 52.9 53 2.3 36.2 12.22 0.481
08:17 1027 30.33 856 25.28 11.7 53 53 2.5 36.5 12.25 0.482
08:18 1027 30.33 856 25.28 11.7 53.1 53 2.4 36.3 12.29 0.484
08:19 1027 30.33 856 25.28 11.7 53.1 58 3.7 38.7 12.25 0.482
08:20 1027 30.33 856 25.28 11.8 53.2 50 1.6 34.9 12.33 0.485
08:21 1027 30.33 856 25.28 11.8 53.2 54 2.8 37 12.28 0.483
08:22 1027 30.33 856 25.28 11.8 53.2 51 2.1 35.8 12.31 0.485
08:23 1027 30.33 856 25.28 11.8 53.2 53 2.5 36.5 12.29 0.484
08:24 1027 30.33 856 25.28 11.8 53.3 56 3.3 37.9 12.39 0.488
08:25 1027 30.33 856 25.28 11.9 53.4 60 4.3 39.8 12.49 0.492
08:26 1027 30.33 856 25.28 12 53.6 54 3 37.4 12.59 0.496
08:27 1027 30.33 856 25.28 12 53.6 58 4 39.2 12.56 0.494
08:28 1027 30.33 856 25.28 12 53.7 54 3.1 37.6 12.6 0.496
08:29 1027 30.33 856 25.28 12 53.6 52 2.6 36.7 12.56 0.494
08:30 1027 30.33 856 25.28 12 53.6 53 2.7 36.8 12.46 0.491
08:31 1027 30.33 856 25.28 12 53.6 56 3.5 38.4 12.53 0.493
08:32 1027 30.33 856 25.28 12 53.6 47 1.1 33.9 12.6 0.496
08:33 1027 30.33 856 25.28 12 53.6 51 2.3 36.1 12.53 0.493
08:34 1027 30.33 856 25.28 12 53.7 50 2 35.6 12.53 0.493
08:35 1027 30.33 856 25.28 12 53.7 52 2.6 36.7 12.53 0.493
08:36 1027 30.33 856 25.28 12 53.6 54 2.9 37.3 12.52 0.493
08:37 1027 30.33 856 25.28 12 53.7 51 2.3 36.1 12.54 0.494
08:38 1027 30.33 856 25.28 12.1 53.7 56 3.6 38.5 12.63 0.497
08:39 1027 30.33 857 25.31 12.2 53.9 53 2.8 37.1 12.71 0.5
08:40 1027 30.33 857 25.31 12.2 53.9 57 4 39.2 12.69 0.5
08:41 1027 30.33 857 25.31 12.3 54.1 54 3.3 37.9 12.8 0.504
08:42 1027 30.33 857 25.31 12.3 54.1 56 3.8 38.8 12.88 0.507
08:43 1027 30.33 857 25.31 12.4 54.3 49 2 35.6 12.86 0.506
08:44 1027 30.33 857 25.31 12.4 54.3 54 3.5 38.4 12.92 0.509
08:45 1027 30.33 857 25.31 12.4 54.4 52 2.8 37.1 12.92 0.509
08:46 1027 30.33 857 25.31 12.5 54.4 51 2.7 36.9 12.95 0.51
08:47 1027 30.33 857 25.31 12.5 54.4 49 2.1 35.8 12.94 0.509
08:48 1027 30.33 857 25.31 12.4 54.3 45 0.8 33.4 12.8 0.504
08:49 1028 30.36 857 25.31 12.4 54.3 46 1.1 34 12.8 0.504
08:50 1028 30.36 857 25.31 12.3 54.2 45 0.9 33.6 12.77 0.503
08:51 1028 30.36 857 25.31 12.4 54.2 55 3.6 38.5 12.8 0.504
08:52 1028 30.36 857 25.31 12.4 54.4 53 3.2 37.7 12.92 0.509
08:53 1028 30.36 857 25.31 12.5 54.4 52 2.9 37.1 13.01 0.512
08:54 1028 30.36 857 25.31 12.6 54.6 57 4.3 39.7 13.08 0.515
08:55 1028 30.36 857 25.31 12.6 54.7 51 2.8 37 13.12 0.517
08:56 1028 30.36 857 25.31 12.6 54.8 50 2.6 36.7 13.11 0.516
08:57 1028 30.36 857 25.31 12.6 54.7 46 1.4 34.5 13.02 0.513
08:58 1028 30.36 857 25.31 12.5 54.6 48 2 35.6 12.98 0.511
08:59 1028 30.36 857 25.31 12.5 54.6 50 2.3 36.2 12.98 0.511
09:00 1028 30.36 857 25.31 12.6 54.6 47 1.6 34.9 13 0.512
09:01 1028 30.36 857 25.31 12.5 54.5 50 2.3 36.2 12.98 0.511
09:02 1028 30.36 857 25.31 12.5 54.6 46 1.3 34.4 12.94 0.509
09:03 1028 30.36 857 25.31 12.5 54.5 53 3.3 38 12.97 0.511
09:04 1028 30.36 857 25.31 12.6 54.7 51 2.7 36.9 13.15 0.518
09:05 1028 30.36 857 25.31 12.8 55 56 4.2 39.6 13.29 0.523
09:06 1028 30.36 857 25.31 12.9 55.2 47 1.9 35.4 13.37 0.526
09:07 1028 30.36 857 25.31 12.9 55.2 50 2.8 37 13.33 0.525
09:08 1028 30.36 857 25.31 12.8 55 46 1.7 35 13.25 0.522
09:09 1028 30.36 857 25.31 12.7 54.9 49 2.5 36.4 13.2 0.52
09:10 1028 30.36 857 25.31 12.8 55 51 3 37.3 13.22 0.52
09:11 1028 30.36 857 25.31 12.8 55 51 2.9 37.1 13.21 0.52
09:12 1028 30.36 857 25.31 12.7 54.9 50 2.7 36.8 13.19 0.519
09:13 1028 30.36 857 25.31 12.7 54.9 51 2.8 37 13.23 0.521
09:14 1028 30.36 857 25.31 12.8 55 52 3.3 37.9 13.31 0.524
09:15 1028 30.36 857 25.31 12.9 55.3 55 4.2 39.6 13.44 0.529
09:16 1028 30.36 857 25.31 13 55.5 49 2.6 36.7 13.53 0.533
09:17 1028 30.36 857 25.31 13.1 55.5 48 2.2 36 13.5 0.531
09:18 1028 30.36 857 25.31 13.1 55.5 50 2.9 37.2 13.49 0.531
09:19 1028 30.36 857 25.31 13 55.4 48 2.4 36.3 13.4 0.528
09:20 1028 30.36 857 25.31 12.9 55.3 50 2.7 36.9 13.37 0.526
09:21 1028 30.36 857 25.31 12.9 55.3 46 1.7 35.1 13.33 0.525
09:22 1028 30.36 857 25.31 12.9 55.2 47 2 35.6 13.32 0.524
09:23 1028 30.36 857 25.31 12.9 55.2 52 3.4 38.1 13.33 0.525
09:24 1028 30.36 857 25.31 13 55.3 48 2.3 36.2 13.43 0.529
09:25 1028 30.36 857 25.31 13 55.4 50 3 37.4 13.45 0.53
09:26 1028 30.36 857 25.31 13.1 55.5 48 2.3 36.1 13.53 0.533
09:27 1028 30.36 857 25.31 13.1 55.6 49 2.6 36.6 13.48 0.531
09:28 1028 30.36 857 25.31 13.1 55.5 46 1.8 35.2 13.5 0.531
09:29 1028 30.36 857 25.31 13.1 55.5 46 1.9 35.3 13.51 0.532
09:30 1028 30.36 857 25.31 13.1 55.5 52 3.5 38.2 13.56 0.534
09:31 1028 30.36 857 25.31 13.2 55.8 50 3.2 37.8 13.67 0.538
09:32 1028 30.36 857 25.31 13.3 55.9 44 1.2 34.2 13.68 0.539
09:33 1028 30.36 857 25.31 13.3 55.9 42 0.8 33.5 13.69 0.539
09:34 1028 30.36 857 25.31 13.3 55.9 47 2.4 36.3 13.7 0.539
09:35 1028 30.36 857 25.31 13.3 56 46 2 35.6 13.78 0.543
09:36 1028 30.36 857 25.31 13.4 56.1 44 1.4 34.6 13.75 0.541
09:37 1028 30.36 857 25.31 13.3 56 49 2.9 37.3 13.73 0.541
09:38 1028 30.36 857 25.31 13.3 56 48 2.7 36.9 13.79 0.543
09:39 1028 30.36 857 25.31 13.3 56 49 2.9 37.2 13.8 0.543
09:40 1028 30.36 857 25.31 13.4 56.1 43 1.1 34 13.83 0.544
09:41 1028 30.36 857 25.31 13.4 56.1 44 1.3 34.4 13.78 0.543
09:42 1028 30.36 857 25.31 13.4 56.1 45 1.7 35 13.82 0.544
09:43 1028 30.36 857 25.31 13.4 56.1 45 1.7 35.1 13.84 0.545
09:44 1028 30.36 857 25.31 13.4 56.1 48 2.8 37.1 13.88 0.546
09:45 1028 30.36 857 25.31 13.5 56.2 48 2.8 37 13.93 0.548
09:46 1028 30.36 857 25.31 13.5 56.4 45 2 35.5 13.99 0.551
09:47 1028 30.36 857 25.31 13.6 56.4 46 2.3 36.1 14.05 0.553
09:48 1028 30.36 857 25.31 13.7 56.6 48 2.9 37.2 14.13 0.556
09:49 1028 30.36 857 25.31 13.7 56.7 48 2.9 37.3 14.14 0.557
09:50 1028 30.36 857 25.31 13.7 56.7 47 2.7 36.8 14.18 0.558
09:51 1028 30.36 857 25.31 13.8 56.8 51 3.8 38.8 14.22 0.56
09:52 1028 30.36 857 25.31 13.9 57 50 3.6 38.5 14.34 0.565
09:53 1028 30.36 857 25.31 14 57.2 48 3.4 38.1 14.45 0.569
09:54 1028 30.36 857 25.31 14.1 57.4 49 3.7 38.6 14.58 0.574
09:55 1028 30.36 857 25.31 14.2 57.6 45 2.6 36.6 14.63 0.576
09:56 1028 30.36 857 25.31 14.2 57.5 46 2.9 37.2 14.57 0.574
09:57 1028 30.36 857 25.31 14.1 57.4 44 2.1 35.8 14.52 0.572
09:58 1028 30.36 857 25.31 14.2 57.5 44 2.1 35.8 14.52 0.572
09:59 1028 30.36 857 25.31 14.1 57.4 45 2.3 36.2 14.55 0.573
10:00 1028 30.36 857 25.31 14.1 57.4 42 1.4 34.5 14.5 0.571
10:01 1028 30.36 857 25.31 14 57.3 43 1.7 35 14.44 0.569
10:02 1028 30.36 857 25.31 14 57.2 49 3.6 38.5 14.45 0.569
10:03 1028 30.36 857 25.31 14 57.3 46 2.7 36.8 14.49 0.57
10:04 1028 30.36 857 25.31 14.1 57.3 46 2.8 37 14.56 0.573
10:05 1028 30.36 857 25.31 14.1 57.4 43 1.9 35.4 14.55 0.573
10:06 1028 30.36 857 25.31 14.1 57.3 46 2.7 36.8 14.48 0.57
10:07 1028 30.36 857 25.31 14.2 57.5 53 4.9 40.8 14.66 0.577
10:08 1028 30.36 857 25.31 14.3 57.7 42 1.7 35.1 14.74 0.58
10:09 1028 30.36 857 25.31 14.2 57.5 40 0.7 33.3 14.7 0.579
10:10 1028 30.36 857 25.31 14.2 57.6 42 1.6 34.8 14.62 0.576
10:11 1028 30.36 857 25.31 14.2 57.5 43 2 35.6 14.71 0.579
10:12 1028 30.36 857 25.31 14.3 57.7 44 2.4 36.3 14.77 0.581
10:13 1028 30.36 857 25.31 14.3 57.7 44 2.2 36 14.69 0.578
10:14 1028 30.36 857 25.31 14.2 57.5 43 1.8 35.3 14.6 0.575
10:15 1028 30.36 857 25.31 14.2 57.5 48 3.5 38.2 14.54 0.572
10:16 1028 30.36 857 25.31 14.2 57.5 44 2.3 36.1 14.64 0.576
10:17 1028 30.36 857 25.31 14.2 57.6 41 1.4 34.5 14.66 0.577
10:18 1028 30.36 857 25.31 14.3 57.7 47 3.1 37.6 14.75 0.581
10:19 1028 30.36 857 25.31 14.4 57.9 47 3.3 37.9 14.87 0.585
10:20 1028 30.36 857 25.31 14.5 58.1 50 4.2 39.6 15.03 0.592
10:21 1028 30.36 857 25.31 14.6 58.3 40 1.3 34.3 15.09 0.594
10:22 1027 30.33 857 25.31 14.6 58.3 39 0.8 33.4 15.01 0.591
10:23 1028 30.36 857 25.31 14.5 58.1 48 3.6 38.4 14.9 0.587
10:24 1028 30.36 857 25.31 14.5 58.1 47 3.3 38 15 0.591
10:25 1028 30.36 857 25.31 14.5 58.1 44 2.6 36.7 14.96 0.589
10:26 1028 30.36 857 25.31 14.5 58.1 44 2.6 36.6 14.93 0.588
10:27 1028 30.36 857 25.31 14.5 58.2 44 2.5 36.6 15.04 0.592
10:28 1028 30.36 857 25.31 14.5 58.1 43 2.2 35.9 15 0.591
10:29 1028 30.36 857 25.31 14.5 58.1 48 3.8 38.9 14.97 0.589
10:30 1028 30.36 857 25.31 14.7 58.4 41 1.5 34.7 15.09 0.594
10:31 1028 30.36 857 25.31 14.7 58.4 49 4.2 39.5 15.07 0.593
10:32 1028 30.36 857 25.31 14.7 58.4 46 3.1 37.6 15.08 0.594
10:33 1028 30.36 857 25.31 14.7 58.4 41 1.7 35 15.13 0.596
10:34 1027 30.33 857 25.31 14.7 58.4 45 3.1 37.5 15.1 0.594
10:35 1027 30.33 857 25.31 14.7 58.4 45 3.1 37.5 15.15 0.596
10:36 1027 30.33 857 25.31 14.7 58.5 45 2.9 37.2 15.2 0.598
10:37 1027 30.33 857 25.31 14.8 58.6 44 2.9 37.2 15.22 0.599
10:38 1027 30.33 857 25.31 14.7 58.4 51 4.7 40.5 15.15 0.596
10:39 1027 30.33 857 25.31 14.6 58.3 43 2.2 35.9 15.1 0.594
10:40 1028 30.36 857 25.31 14.6 58.2 40 1.1 33.9 14.95 0.589
10:41 1027 30.33 857 25.31 14.5 58 42 1.6 35 14.89 0.586
10:42 1027 30.33 857 25.31 14.4 57.9 42 1.8 35.2 14.86 0.585
10:43 1028 30.36 857 25.31 14.5 58 49 4.1 39.4 14.89 0.586
10:44 1028 30.36 857 25.31 14.5 58.1 47 3.5 38.2 14.95 0.589
10:45 1028 30.36 857 25.31 14.5 58.2 42 2 35.6 15 0.591
10:46 1028 30.36 857 25.31 14.5 58.1 38 0.6 33 14.99 0.59
10:47 1028 30.36 857 25.31 14.5 58.1 41 1.4 34.6 14.96 0.589
10:48 1028 30.36 857 25.31 14.5 58.1 50 4.4 39.8 15.02 0.591
10:49 1028 30.36 857 25.31 14.7 58.4 44 2.6 36.6 15.15 0.596
10:50 1028 30.36 857 25.31 14.8 58.6 50 4.5 40 15.28 0.602
10:51 1028 30.36 857 25.31 14.9 58.8 40 1.7 35 15.38 0.606
10:52 1028 30.36 857 25.31 14.9 58.7 39 1.2 34.1 15.31 0.603
10:53 1028 30.36 857 25.31 14.9 58.8 44 2.7 36.8 15.38 0.606
10:54 1028 30.36 857 25.31 15 58.9 49 4.5 40.1 15.43 0.607
10:55 1028 30.36 857 25.31 14.9 58.9 39 1.1 34 15.34 0.604
10:56 1028 30.36 857 25.31 14.9 58.8 46 3.4 38.2 15.33 0.604
10:57 1028 30.36 857 25.31 14.9 58.8 40 1.5 34.7 15.37 0.605
10:58 1028 30.36 857 25.31 14.9 58.8 43 2.4 36.4 15.32 0.603
10:59 1028 30.36 857 25.31 14.9 58.9 45 3.2 37.8 15.39 0.606
11:00 1028 30.36 857 25.31 15.1 59.1 46 3.5 38.3 15.53 0.611
11:01 1028 30.36 857 25.31 15.1 59.3 38 0.9 33.6 15.59 0.614
11:02 1028 30.36 857 25.31 15.1 59.1 43 2.8 37.1 15.47 0.609
11:03 1028 30.36 857 25.31 15 59 37 0.4 32.8 15.45 0.608
11:04 1028 30.36 857 25.31 14.9 58.8 41 2 35.5 15.36 0.605
11:05 1028 30.36 857 25.31 15 59 38 0.9 33.7 15.45 0.608
11:06 1028 30.36 857 25.31 15 59 44 3 37.5 15.46 0.609
11:07 1028 30.36 857 25.31 15.1 59.2 46 3.7 38.7 15.6 0.614
11:08 1028 30.36 857 25.31 15.3 59.5 48 4.4 39.9 15.76 0.62
11:09 1028 30.36 857 25.31 15.3 59.6 42 2.7 36.8 15.74 0.62
11:10 1028 30.36 857 25.31 15.2 59.3 40 1.9 35.4 15.59 0.614
11:11 1028 30.36 857 25.31 15.1 59.2 42 2.4 36.2 15.55 0.612
11:12 1028 30.36 857 25.31 15.1 59.1 44 3.1 37.6 15.51 0.611
11:13 1028 30.36 857 25.31 15.1 59.1 41 2 35.7 15.46 0.609
11:14 1028 30.36 857 25.31 15 59 40 1.7 35 15.44 0.608
11:15 1028 30.36 857 25.31 15 59 44 2.9 37.3 15.45 0.608
11:16 1028 30.36 857 25.31 15 59 44 2.9 37.1 15.49 0.61
11:17 1028 30.36 857 25.31 15.1 59.2 41 2.1 35.7 15.55 0.612
11:18 1028 30.36 857 25.31 15.1 59.1 41 1.9 35.4 15.54 0.612
11:19 1028 30.36 857 25.31 15.1 59.1 41 2 35.7 15.54 0.612
11:20 1028 30.36 857 25.31 15.1 59.2 48 4.4 40 15.57 0.613
11:21 1028 30.36 857 25.31 15.2 59.4 41 2.1 35.8 15.69 0.618
11:22 1028 30.36 857 25.31 15.3 59.5 40 1.9 35.5 15.66 0.617
11:23 1028 30.36 857 25.31 15.3 59.5 40 1.9 35.4 15.71 0.619
11:24 1028 30.36 857 25.31 15.2 59.4 42 2.4 36.3 15.67 0.617
11:25 1028 30.36 857 25.31 15.3 59.5 38 1.1 34 15.71 0.619
11:26 1028 30.36 857 25.31 15.2 59.4 41 2.2 36 15.63 0.615
11:27 1028 30.36 857 25.31 15.2 59.3 41 2 35.6 15.65 0.616
11:28 1028 30.36 857 25.31 15.2 59.4 44 3.2 37.7 15.68 0.617
11:29 1028 30.36 857 25.31 15.3 59.5 44 3.2 37.7 15.74 0.62
11:30 1028 30.36 857 25.31 15.4 59.7 42 2.5 36.5 15.85 0.624
11:31 1028 30.36 857 25.31 15.4 59.8 44 3.3 38 15.85 0.624
11:32 1028 30.36 857 25.31 15.5 59.8 42 2.7 36.9 15.92 0.627
11:33 1028 30.36 857 25.31 15.4 59.8 45 3.7 38.6 15.89 0.626
11:34 1028 30.36 857 25.31 15.5 59.8 40 1.9 35.5 15.96 0.628
11:35 1028 30.36 857 25.31 15.5 60 40 2.2 36 16.03 0.631
11:36 1028 30.36 857 25.31 15.6 60.1 43 3.1 37.6 16.02 0.631
11:37 1028 30.36 857 25.31 15.6 60.2 45 3.8 38.8 16.12 0.635
11:38 1028 30.36 857 25.31 15.8 60.4 40 2.2 35.9 16.25 0.64
11:39 1028 30.36 857 25.31 15.8 60.5 45 4.1 39.3 16.2 0.638
11:40 1028 30.36 857 25.31 15.8 60.4 42 3.1 37.7 16.2 0.638
11:41 1028 30.36 857 25.31 15.8 60.4 41 2.8 37 16.17 0.637
11:42 1028 30.36 857 25.31 15.7 60.2 36 0.8 33.4 16.08 0.633
11:43 1028 30.36 857 25.31 15.6 60.1 41 2.6 36.6 16.02 0.631
11:44 1028 30.36 857 25.31 15.6 60.1 37 1 33.8 16.03 0.631
11:45 1028 30.36 857 25.31 15.6 60.1 40 2.2 35.9 16.05 0.632
11:46 1028 30.36 857 25.31 15.6 60.1 44 3.4 38 16.02 0.631
11:47 1028 30.36 857 25.31 15.6 60.1 37 1 33.7 16.04 0.631
11:48 1028 30.36 857 25.31 15.5 60 46 3.9 39.1 15.98 0.629
11:49 1028 30.36 857 25.31 15.5 60 35 0.3 32.5 15.99 0.63
11:50 1028 30.36 857 25.31 15.6 60 44 3.4 38.1 16.04 0.631
11:51 1028 30.36 857 25.31 15.6 60.2 41 2.5 36.4 16.16 0.636
11:52 1028 30.36 857 25.31 15.6 60.1 40 2 35.7 16.15 0.636
11:53 1028 30.36 857 25.31 15.7 60.2 46 4.2 39.5 16.2 0.638
11:54 1028 30.36 857 25.31 15.8 60.5 46 4.3 39.8 16.3 0.642
11:55 1028 30.36 857 25.31 15.9 60.6 35 0.6 33.1 16.3 0.642
11:56 1028 30.36 857 25.31 15.8 60.5 43 3.2 37.8 16.29 0.641
11:57 1028 30.36 857 25.31 15.9 60.7 46 4.3 39.8 16.42 0.646
11:58 1028 30.36 857 25.31 16 60.8 46 4.5 40.1 16.45 0.648
11:59 1028 30.36 857 25.31 16 60.8 33 0 32.1 16.43 0.647
12:00 1028 30.36 857 25.31 15.9 60.7 49 5.4 41.7 16.38 0.645
12:01 1028 30.36 857 25.31 16 60.8 44 4 39.2 16.55 0.652
12:02 1028 30.36 857 25.31 16.1 61 42 3.4 38.1 16.63 0.655
12:03 1028 30.36 857 25.31 16.1 61 36 1.1 34.1 16.61 0.654
12:04 1028 30.36 857 25.31 16.2 61.1 48 5.3 41.5 16.72 0.658
12:05 1028 30.36 857 25.31 16.2 61.2 47 5.1 41.1 16.75 0.659
12:06 1028 30.36 857 25.31 16.3 61.3 30 -1.2 29.9 16.71 0.658
12:07 1028 30.36 857 25.31 16.1 61.1 42 3.5 38.2 16.61 0.654
12:08 1028 30.36 857 25.31 16.1 61 41 2.9 37.2 16.57 0.652
12:09 1028 30.36 857 25.31 16.1 61 42 3.4 38.1 16.63 0.655
12:10 1028 30.36 857 25.31 16.2 61.2 39 2.5 36.5 16.76 0.66
12:11 1028 30.36 857 25.31 16.3 61.3 37 1.5 34.7 16.73 0.659
12:12 1028 30.36 857 25.31 16.3 61.4 40 2.7 36.9 16.8 0.661
12:13 1028 30.36 857 25.31 16.4 61.6 36 1.6 34.9 16.98 0.669
12:14 1028 30.36 857 25.31 16.5 61.7 48 5.4 41.8 16.99 0.669
12:15 1028 30.36 857 25.31 16.6 61.8 38 2.3 36.2 17.02 0.67
12:16 1028 30.36 857 25.31 16.5 61.7 47 5.4 41.7 17.01 0.67
12:17 1028 30.36 857 25.31 16.5 61.6 40 3 37.4 16.91 0.666
12:18 1027 30.33 857 25.31 16.4 61.5 35 1.1 34.1 16.88 0.665
12:19 1028 30.36 857 25.31 16.4 61.5 47 5.1 41.2 16.85 0.663
12:20 1028 30.36 857 25.31 16.5 61.6 46 5 41.1 16.94 0.667
12:21 1028 30.36 857 25.31 16.4 61.6 42 3.4 38.2 16.9 0.665
12:22 1028 30.36 857 25.31 16.4 61.6 34 0.5 33 16.87 0.664
12:23 1028 30.36 857 25.31 16.4 61.4 37 1.6 34.8 16.72 0.658
12:24 1028 30.36 857 25.31 16.3 61.3 43 3.8 38.9 16.75 0.659
12:25 1028 30.36 857 25.31 16.4 61.4 41 3.3 38 16.84 0.663
12:26 1028 30.36 857 25.31 16.4 61.5 36 1.4 34.5 16.83 0.663
12:27 1028 30.36 857 25.31 16.3 61.4 41 3 37.5 16.78 0.661
12:28 1028 30.36 857 25.31 16.3 61.3 43 3.9 39 16.75 0.659
12:29 1028 30.36 857 25.31 16.3 61.4 32 -0.3 31.5 16.86 0.664
12:30 1028 30.36 857 25.31 16.4 61.4 39 2.6 36.6 16.84 0.663
12:31 1028 30.36 857 25.31 16.5 61.7 41 3.4 38.1 16.98 0.669
12:32 1028 30.36 857 25.31 16.7 62 35 1.1 33.9 17.07 0.672
12:33 1028 30.36 857 25.31 16.7 62.1 32 -0.1 31.9 17.09 0.673
12:34 1028 30.36 857 25.31 16.7 62.1 49 6 42.7 17.15 0.675
12:35 1028 30.36 857 25.31 16.8 62.2 38 2.3 36.2 17.22 0.678
12:36 1028 30.36 857 25.31 16.8 62.2 39 3 37.4 17.17 0.676
12:37 1028 30.36 857 25.31 16.7 62.1 33 0.7 33.2 17.14 0.675
12:38 1028 30.36 857 25.31 16.6 61.9 41 3.4 38.2 17.02 0.67
12:39 1028 30.36 857 25.31 16.6 61.9 43 4 39.1 17.07 0.672
12:40 1028 30.36 857 25.31 16.6 61.9 33 0.5 33 17.1 0.673
12:41 1028 30.36 857 25.31 16.6 61.9 41 3.4 38.2 17.08 0.672
12:42 1028 30.36 857 25.31 16.6 61.9 39 2.9 37.1 17.13 0.674
12:43 1028 30.36 857 25.31 16.6 62 35 1.1 34.1 17.17 0.676
12:44 1028 30.36 857 25.31 16.8 62.2 43 4.4 39.9 17.27 0.68
12:45 1028 30.36 857 25.31 16.8 62.2 33 0.6 33 17.29 0.681
12:46 1028 30.36 857 25.31 16.6 62 42 3.9 39 17.12 0.674
12:47 1027 30.33 857 25.31 16.7 62 36 1.7 35 17.15 0.675
12:48 1027 30.33 857 25.31 16.6 62 44 4.4 39.9 17.16 0.676
12:49 1027 30.33 857 25.31 16.7 62 45 4.7 40.5 17.16 0.676
12:50 1027 30.33 857 25.31 16.7 62.1 39 2.8 37 17.32 0.682
12:51 1027 30.33 857 25.31 16.8 62.2 44 4.6 40.2 17.34 0.683
12:52 1027 30.33 857 25.31 17 62.6 41 3.7 38.7 17.53 0.69
12:53 1027 30.33 857 25.31 17.1 62.7 42 4.3 39.7 17.61 0.693
12:54 1027 30.33 857 25.31 17 62.7 33 0.9 33.6 17.45 0.687
12:55 1027 30.33 857 25.31 16.8 62.3 30 -0.7 30.8 17.26 0.68
12:56 1027 30.33 857 25.31 16.8 62.2 43 4.4 39.9 17.26 0.68
12:57 1027 30.33 857 25.31 16.9 62.3 35 1.5 34.6 17.44 0.687
12:58 1027 30.33 857 25.31 17.1 62.7 41 3.9 39.1 17.62 0.694
12:59 1027 30.33 857 25.31 17.2 63 30 -0.2 31.7 17.72 0.698
13:00 1027 30.33 857 25.31 17.3 63.2 32 0.4 32.7 17.87 0.704
13:01 1027 30.33 857 25.31 17.5 63.5 33 1 33.8 18.02 0.709
13:02 1027 30.33 857 25.31 17.6 63.6 35 2.1 35.8 18.16 0.715
13:03 1027 30.33 857 25.31 17.5 63.4 40 3.9 39 18.16 0.715
13:04 1027 30.33 857 25.31 17.5 63.4 39 3.6 38.5 18.09 0.712
13:05 1027 30.33 857 25.31 17.3 63.2 32 0.4 32.8 17.89 0.704
13:06 1027 30.33 857 25.31 17.3 63.1 44 4.9 40.9 17.76 0.699
13:07 1027 30.33 857 25.31 17.4 63.2 38 3.2 37.8 17.93 0.706
13:08 1027 30.33 857 25.31 17.5 63.5 40 4 39.2 18.09 0.712
13:09 1027 30.33 857 25.31 17.5 63.5 33 1.1 34 18.07 0.711
13:10 1027 30.33 857 25.31 17.5 63.4 29 -0.7 30.8 17.86 0.703
13:11 1027 30.33 857 25.31 17.3 63.2 39 3.5 38.2 17.7 0.697
13:12 1027 30.33 857 25.31 17.4 63.3 42 4.4 39.9 17.79 0.7
13:13 1027 30.33 857 25.31 17.4 63.3 47 5.9 42.7 17.88 0.704
13:14 1027 30.33 857 25.31 17.4 63.4 37 2.6 36.7 17.86 0.703
13:15 1027 30.33 857 25.31 17.3 63.1 39 3.2 37.8 17.69 0.696
13:16 1027 30.33 857 25.31 17.2 62.9 28 -1.6 29.1 17.51 0.689
13:17 1027 30.33 857 25.31 17.1 62.7 29 -0.8 30.5 17.51 0.689
13:18 1027 30.33 857 25.31 17.1 62.8 32 0.4 32.7 17.53 0.69
13:19 1027 30.33 856 25.28 17.3 63.1 39 3.3 38 17.7 0.697
13:20 1027 30.33 857 25.31 17.4 63.3 37 2.6 36.7 17.9 0.705
13:21 1027 30.33 856 25.28 17.4 63.4 29 -0.6 30.9 17.89 0.704
13:22 1027 30.33 856 25.28 17.4 63.4 28 -0.9 30.4 17.91 0.705
13:23 1027 30.33 856 25.28 17.4 63.3 32 0.7 33.3 17.89 0.704
13:24 1027 30.33 856 25.28 17.4 63.4 31 0.5 32.8 17.97 0.707
13:25 1027 30.33 856 25.28 17.5 63.5 27 -1.7 29 17.94 0.706
13:26 1027 30.33 856 25.28 17.5 63.4 31 0.3 32.5 17.92 0.706
13:27 1027 30.33 856 25.28 17.5 63.5 36 2.4 36.3 17.98 0.708
13:28 1027 30.33 856 25.28 17.5 63.4 33 1 33.8 17.95 0.707
13:29 1027 30.33 856 25.28 17.5 63.4 36 2.5 36.6 17.87 0.704
13:30 1027 30.33 856 25.28 17.5 63.5 39 3.6 38.4 17.89 0.704
13:31 1027 30.33 856 25.28 17.6 63.6 34 1.7 35.1 17.85 0.703
13:32 1027 30.33 856 25.28 17.5 63.6 42 4.5 40.1 17.86 0.703
13:33 1027 30.33 856 25.28 17.5 63.5 36 2.3 36.1 17.86 0.703
13:34 1027 30.33 856 25.28 17.5 63.4 38 3 37.5 17.81 0.701
13:35 1027 30.33 856 25.28 17.4 63.4 36 2.2 36 17.79 0.7
13:36 1027 30.33 856 25.28 17.4 63.3 32 0.8 33.5 17.75 0.699
13:37 1027 30.33 856 25.28 17.4 63.2 36 2.3 36.1 17.75 0.699
13:38 1027 30.33 856 25.28 17.5 63.4 26 -1.9 28.6 17.88 0.704
13:39 1027 30.33 856 25.28 17.6 63.7 34 1.8 35.3 17.93 0.706
13:40 1027 30.33 856 25.28 17.6 63.8 32 0.8 33.5 18.01 0.709
13:41 1027 30.33 856 25.28 17.6 63.7 41 4.3 39.7 17.95 0.707
13:42 1027 30.33 856 25.28 17.6 63.6 36 2.4 36.3 18.01 0.709
13:43 1027 30.33 856 25.28 17.6 63.7 29 -0.5 31.1 18 0.709
13:44 1027 30.33 856 25.28 17.5 63.6 35 2 35.6 17.98 0.708
13:45 1027 30.33 856 25.28 17.7 63.8 28 -0.8 30.6 18.12 0.713
13:46 1027 30.33 856 25.28 17.8 64 39 3.8 38.8 18.22 0.717
13:47 1027 30.33 856 25.28 17.8 64.1 30 0.4 32.6 18.36 0.723
13:48 1027 30.33 856 25.28 17.9 64.2 43 5.1 41.2 18.39 0.724
13:49 1027 30.33 856 25.28 18 64.4 39 4 39.2 18.48 0.728
13:50 1027 30.33 856 25.28 18 64.4 33 1.7 35 18.49 0.728
13:51 1027 30.33 856 25.28 17.9 64.2 34 1.8 35.2 18.29 0.72
13:52 1027 30.33 856 25.28 17.8 64 31 0.4 32.7 18.2 0.717
13:53 1027 30.33 856 25.28 17.7 63.9 31 0.6 33 18.14 0.714
13:54 1027 30.33 856 25.28 17.7 63.8 33 1.5 34.6 18.08 0.712
13:55 1027 30.33 856 25.28 17.6 63.7 33 1.3 34.4 18.07 0.711
13:56 1027 30.33 856 25.28 17.7 63.8 37 2.9 37.2 18.14 0.714
13:57 1027 30.33 856 25.28 17.8 64.1 42 4.7 40.5 18.28 0.72
13:58 1027 30.33 856 25.28 17.9 64.2 36 2.8 37 18.31 0.721
13:59 1027 30.33 856 25.28 17.9 64.1 36 2.7 36.9 18.25 0.719
14:00 1027 30.33 856 25.28 17.8 64 34 1.6 35 18.23 0.718
14:01 1027 30.33 856 25.28 17.8 64.1 35 2.4 36.3 18.22 0.717
14:02 1027 30.33 856 25.28 17.8 64 36 2.5 36.5 18.19 0.716
14:03 1027 30.33 856 25.28 17.7 63.9 41 4.4 39.9 18.15 0.715
14:04 1027 30.33 856 25.28 17.8 64 38 3.3 37.9 18.21 0.717
14:05 1027 30.33 856 25.28 17.8 64.1 38 3.4 38.2 18.31 0.721
14:06 1027 30.33 856 25.28 17.9 64.3 32 1.1 33.9 18.42 0.725
14:07 1027 30.33 856 25.28 17.9 64.3 40 4.4 40 18.41 0.725
14:08 1027 30.33 856 25.28 17.9 64.3 33 1.5 34.8 18.33 0.722
14:09 1027 30.33 856 25.28 17.9 64.1 33 1.7 35 18.28 0.72
14:10 1027 30.33 856 25.28 17.8 64.1 30 0.1 32.1 18.23 0.718
14:11 1027 30.33 856 25.28 17.8 64.1 37 3.1 37.5 18.19 0.716
14:12 1027 30.33 856 25.28 17.8 64.1 32 0.9 33.7 18.23 0.718
14:13 1027 30.33 856 25.28 17.9 64.1 38 3.4 38.1 18.27 0.719
14:14 1027 30.33 856 25.28 18 64.3 30 0.4 32.6 18.36 0.723
14:15 1027 30.33 856 25.28 18 64.4 38 3.7 38.7 18.44 0.726
14:16 1027 30.33 856 25.28 18.1 64.7 31 0.9 33.7 18.58 0.731
14:17 1027 30.33 856 25.28 18.3 64.9 38 3.7 38.6 18.68 0.735
14:18 1027 30.33 856 25.28 18.4 65.1 30 0.6 33 18.73 0.737
14:19 1027 30.33 856 25.28 18.3 65 42 5.4 41.7 18.68 0.735
14:20 1027 30.33 856 25.28 18.3 65 32 1.4 34.5 18.68 0.735
14:21 1027 30.33 856 25.28 18.3 65 40 4.6 40.2 18.78 0.739
14:22 1027 30.33 856 25.28 18.4 65.2 40 4.8 40.7 18.88 0.743
14:23 1027 30.33 856 25.28 18.5 65.3 26 -1 30.2 19.01 0.748
14:24 1027 30.33 856 25.28 18.6 65.4 33 2.1 35.8 18.97 0.747
14:25 1027 30.33 856 25.28 18.6 65.6 41 5.4 41.8 19.1 0.752
14:26 1027 30.33 856 25.28 18.7 65.7 32 2 35.7 19.17 0.755
14:27 1027 30.33 856 25.28 18.6 65.5 36 3.2 37.7 19.02 0.749
14:28 1027 30.33 856 25.28 18.6 65.4 30 0.8 33.4 19.04 0.75
14:29 1027 30.33 856 25.28 18.5 65.3 33 2 35.6 18.99 0.748
14:30 1027 30.33 856 25.28 18.5 65.3 34 2.6 36.7 18.98 0.747
14:31 1027 30.33 856 25.28 18.6 65.5 29 0.4 32.6 19.07 0.751
14:32 1027 30.33 856 25.28 18.6 65.5 37 3.8 38.8 19.12 0.753
14:33 1027 30.33 856 25.28 18.6 65.6 35 2.9 37.3 19.16 0.754
14:34 1027 30.33 856 25.28 18.6 65.5 28 -0.4 31.3 19.12 0.753
14:35 1027 30.33 856 25.28 18.5 65.3 38 3.9 39 18.91 0.744
14:36 1027 30.33 856 25.28 18.4 65.1 41 4.9 40.8 18.91 0.744
14:37 1027 30.33 856 25.28 18.5 65.2 32 1.4 34.6 18.94 0.746
14:38 1027 30.33 856 25.28 18.4 65.2 28 -0.3 31.5 18.83 0.741
14:39 1027 30.33 856 25.28 18.4 65.2 36 3.3 38 18.93 0.745
14:40 1027 30.33 856 25.28 18.6 65.5 41 5.1 41.3 19.11 0.752
14:41 1027 30.33 856 25.28 18.8 65.8 35 3.3 37.9 19.23 0.757
14:42 1027 30.33 856 25.28 18.9 65.9 38 4.4 39.9 19.4 0.764
14:43 1027 30.33 856 25.28 19 66.1 27 -0.2 31.7 19.41 0.764
14:44 1027 30.33 856 25.28 18.9 66 31 1.6 34.9 19.3 0.76
14:45 1027 30.33 856 25.28 18.8 65.8 31 1.5 34.8 19.2 0.756
14:46 1027 30.33 856 25.28 18.7 65.6 29 0.5 33 19.12 0.753
14:47 1027 30.33 856 25.28 18.6 65.4 30 0.8 33.5 19.03 0.749
14:48 1027 30.33 856 25.28 18.6 65.4 31 1.4 34.5 19.09 0.752
14:49 1027 30.33 856 25.28 18.6 65.5 37 3.7 38.6 19.04 0.75
14:50 1027 30.33 856 25.28 18.6 65.5 27 -0.4 31.3 19.1 0.752
14:51 1027 30.33 856 25.28 18.6 65.4 33 2 35.6 19.04 0.75
14:52 1027 30.33 856 25.28 18.6 65.4 37 3.9 38.9 19.03 0.749
14:53 1027 30.33 856 25.28 18.7 65.7 35 3 37.4 19.17 0.755
14:54 1027 30.33 856 25.28 18.8 65.9 32 1.9 35.4 19.26 0.758
14:55 1027 30.33 856 25.28 18.9 66 27 -0.4 31.4 19.41 0.764
14:56 1027 30.33 856 25.28 19.1 66.4 27 -0.3 31.5 19.56 0.77
14:57 1027 30.33 856 25.28 19.2 66.6 36 3.8 38.9 19.69 0.775
14:58 1027 30.33 856 25.28 19.2 66.6 29 0.9 33.6 19.77 0.778
14:59 1027 30.33 856 25.28 19.4 66.8 32 2.3 36.1 19.85 0.781
15:00 1027 30.33 856 25.28 19.4 67 28 0.5 32.9 19.88 0.783
15:01 1027 30.33 856 25.28 19.4 67 33 2.7 36.9 19.88 0.783
15:02 1027 30.33 856 25.28 19.5 67.1 37 4.6 40.3 19.93 0.785
15:03 1027 30.33 856 25.28 19.5 67.1 30 1.6 34.9 19.89 0.783
15:04 1027 30.33 856 25.28 19.4 66.8 31 1.9 35.4 19.72 0.776
15:05 1027 30.33 856 25.28 19.2 66.6 33 2.8 37.1 19.65 0.774
15:06 1027 30.33 856 25.28 19.2 66.5 34 3.1 37.6 19.62 0.772
15:07 1027 30.33 856 25.28 19.2 66.5 28 0.6 33.1 19.65 0.774
15:08 1027 30.33 856 25.28 19.2 66.5 40 5.4 41.7 19.58 0.771
15:09 1027 30.33 856 25.28 19.2 66.5 31 1.7 35 19.59 0.771
15:10 1027 30.33 856 25.28 19.1 66.4 32 2 35.6 19.54 0.769
15:11 1027 30.33 856 25.28 19.2 66.5 37 4.2 39.5 19.66 0.774
15:12 1027 30.33 856 25.28 19.3 66.8 37 4.5 40.1 19.8 0.78
15:13 1027 30.33 856 25.28 19.4 66.9 36 4.2 39.6 19.81 0.78
15:14 1027 30.33 856 25.28 19.4 66.9 33 2.8 37.1 19.86 0.782
15:15 1027 30.33 856 25.28 19.4 66.8 27 0.3 32.5 19.74 0.777
15:16 1027 30.33 856 25.28 19.2 66.6 33 2.8 37 19.64 0.773
15:17 1027 30.33 856 25.28 19.3 66.7 37 4.5 40 19.72 0.776
15:18 1027 30.33 856 25.28 19.5 67 41 6.1 43 19.98 0.787
15:19 1027 30.33 856 25.28 19.7 67.4 31 2.4 36.3 20.16 0.794
15:20 1027 30.33 856 25.28 19.7 67.5 27 0.5 32.9 20.19 0.795
15:21 1027 30.33 856 25.28 19.6 67.2 36 4.4 39.9 20.03 0.789
15:22 1027 30.33 856 25.28 19.5 67 34 3.2 37.8 19.96 0.786
15:23 1027 30.33 856 25.28 19.5 67 34 3.2 37.7 19.95 0.785
15:24 1027 30.33 856 25.28 19.6 67.2 30 1.5 34.7 19.96 0.786
15:25 1027 30.33 856 25.28 19.6 67.3 30 1.5 34.7 20.02 0.788
15:26 1027 30.33 856 25.28 19.6 67.4 36 4.3 39.8 20.06 0.79
15:27 1027 30.33 856 25.28 19.7 67.4 31 2.3 36.2 20.11 0.792
15:28 1027 30.33 856 25.28 19.6 67.2 33 2.9 37.2 20 0.787
15:29 1027 30.33 856 25.28 19.5 67.2 37 4.5 40.1 19.96 0.786
15:30 1027 30.33 856 25.28 19.6 67.3 33 3 37.3 19.99 0.787
15:31 1027 30.33 856 25.28 19.5 67.1 31 2 35.5 19.95 0.785
15:32 1027 30.33 856 25.28 19.5 67 30 1.8 35.2 19.87 0.782
15:33 1027 30.33 856 25.28 19.5 67 33 3.1 37.6 19.86 0.782
15:34 1027 30.33 856 25.28 19.5 67.1 28 0.8 33.4 19.98 0.787
15:35 1027 30.33 856 25.28 19.5 67.2 31 2.2 36 20.03 0.789
15:36 1026 30.3 856 25.28 19.5 67.2 31 2.2 35.9 20.04 0.789
15:37 1027 30.33 856 25.28 19.5 67.1 33 2.8 37 20.02 0.788
15:38 1027 30.33 856 25.28 19.5 67.1 38 4.9 40.7 20.05 0.789
15:39 1027 30.33 856 25.28 19.5 67.1 32 2.7 36.8 20.12 0.792
15:40 1027 30.33 856 25.28 19.6 67.4 36 4.2 39.5 20.15 0.793
15:41 1026 30.3 856 25.28 19.7 67.5 31 2.4 36.3 20.15 0.793
15:42 1027 30.33 856 25.28 19.7 67.5 34 3.7 38.7 20.2 0.795
15:43 1026 30.3 856 25.28 19.7 67.5 27 0.6 33.1 20.24 0.797
15:44 1026 30.3 856 25.28 19.8 67.7 30 1.8 35.3 20.37 0.802
15:45 1026 30.3 856 25.28 19.9 67.9 32 3.1 37.6 20.43 0.804
15:46 1026 30.3 856 25.28 19.9 67.9 33 3.4 38.1 20.34 0.801
15:47 1026 30.3 856 25.28 20 67.9 35 4.2 39.6 20.39 0.803
15:48 1026 30.3 856 25.28 20 68 30 1.9 35.4 20.35 0.801
15:49 1026 30.3 856 25.28 20 68.1 35 4.4 39.9 20.39 0.803
15:50 1026 30.3 856 25.28 20.1 68.1 27 0.8 33.5 20.35 0.801
15:51 1026 30.3 856 25.28 20 67.9 32 3 37.3 20.29 0.799
15:52 1026 30.3 856 25.28 20 68 32 3.1 37.6 20.35 0.801
15:53 1026 30.3 856 25.28 20 68.1 27 0.8 33.5 20.32 0.8
15:54 1026 30.3 856 25.28 20 68.1 31 2.5 36.5 20.26 0.798
15:55 1026 30.3 856 25.28 20.1 68.2 38 5.6 42.1 20.33 0.8
15:56 1026 30.3 856 25.28 20.2 68.4 31 2.5 36.5 20.48 0.806
15:57 1026 30.3 856 25.28 20.3 68.5 30 2.2 36 20.52 0.808
15:58 1026 30.3 856 25.28 20.2 68.3 31 2.7 36.8 20.44 0.805
15:59 1026 30.3 856 25.28 20.1 68.1 33 3.3 38 20.36 0.802
16:00 1026 30.3 856 25.28 20.1 68.2 32 3 37.4 20.43 0.804
16:01 1026 30.3 856 25.28 20.1 68.2 32 3.2 37.7 20.37 0.802
16:02 1026 30.3 856 25.28 20 68.1 28 1 33.9 20.29 0.799
16:03 1026 30.3 856 25.28 20 67.9 33 3.4 38.2 20.17 0.794
16:04 1026 30.3 856 25.28 20 67.9 29 1.7 35.1 20.22 0.796
16:05 1026 30.3 856 25.28 20 68 30 2.1 35.7 20.19 0.795
16:06 1026 30.3 856 25.28 20.1 68.1 36 4.7 40.4 20.29 0.799
16:07 1026 30.3 856 25.28 20.2 68.4 29 1.8 35.3 20.48 0.806
16:08 1026 30.3 856 25.28 20.3 68.6 34 4.3 39.7 20.45 0.805
16:09 1026 30.3 856 25.28 20.4 68.8 32 3.1 37.6 20.58 0.81
16:10 1026 30.3 856 25.28 20.5 68.9 31 3.1 37.6 20.81 0.819
16:11 1026 30.3 856 25.28 20.6 69 29 2.3 36.1 20.97 0.826
16:12 1026 30.3 856 25.28 20.6 69 30 2.8 37 21 0.827
16:13 1026 30.3 856 25.28 20.6 69 28 1.5 34.7 20.98 0.826
16:14 1026 30.3 856 25.28 20.6 69.1 28 1.7 35 20.86 0.821
16:15 1026 30.3 856 25.28 20.6 69.1 32 3.7 38.6 20.83 0.82
16:16 1026 30.3 856 25.28 20.7 69.2 39 6.3 43.3 20.82 0.82
16:17 1026 30.3 856 25.28 20.8 69.4 38 6.2 43.2 20.96 0.825
16:18 1026 30.3 856 25.28 20.8 69.5 34 4.6 40.4 21.03 0.828
16:19 1026 30.3 856 25.28 20.8 69.5 26 0.8 33.4 21.08 0.83
16:20 1026 30.3 855 25.25 20.7 69.3 30 2.9 37.3 21.04 0.828
16:21 1026 30.3 856 25.28 20.6 69.1 33 4 39.2 21.02 0.828
16:22 1026 30.3 855 25.25 20.5 69 31 2.9 37.2 20.91 0.823
16:23 1026 30.3 855 25.25 20.5 68.8 35 4.7 40.4 20.87 0.822
16:24 1026 30.3 855 25.25 20.4 68.8 33 3.8 38.8 20.79 0.819
16:25 1026 30.3 855 25.25 20.4 68.7 29 1.9 35.5 20.82 0.82
16:26 1026 30.3 855 25.25 20.4 68.8 32 3.3 37.9 20.89 0.822
16:27 1026 30.3 855 25.25 20.5 69 34 4.2 39.5 20.97 0.826
16:28 1026 30.3 855 25.25 20.6 69 33 4 39.2 20.98 0.826
16:29 1026 30.3 855 25.25 20.6 69.1 32 3.3 37.9 20.96 0.825
16:30 1026 30.3 855 25.25 20.5 68.9 32 3.6 38.4 20.89 0.822
16:31 1026 30.3 855 25.25 20.5 68.9 30 2.6 36.8 20.92 0.824
16:32 1026 30.3 855 25.25 20.5 68.8 31 2.7 36.9 20.91 0.823
16:33 1026 30.3 855 25.25 20.5 68.9 30 2.4 36.3 20.87 0.822
16:34 1026 30.3 855 25.25 20.5 68.8 33 3.8 38.8 20.91 0.823
16:35 1026 30.3 855 25.25 20.4 68.8 24 -0.4 31.2 20.89 0.822
16:36 1026 30.3 855 25.25 20.5 68.9 31 2.8 37.1 21 0.827
16:37 1026 30.3 855 25.25 20.6 69.2 24 -0.7 30.7 21.13 0.832
16:38 1026 30.3 855 25.25 20.7 69.2 27 1.3 34.3 21.19 0.834
16:39 1026 30.3 855 25.25 20.8 69.4 33 4.1 39.3 21.28 0.838
16:40 1026 30.3 855 25.25 21 69.8 30 2.9 37.2 21.47 0.845
16:41 1026 30.3 855 25.25 21.1 69.9 34 4.7 40.5 21.53 0.848
16:42 1026 30.3 855 25.25 21 69.8 29 2.6 36.7 21.52 0.847
16:43 1026 30.3 855 25.25 21 69.8 23 -0.7 30.8 21.5 0.846
16:44 1026 30.3 855 25.25 21 69.8 29 2.4 36.3 21.44 0.844
16:45 1026 30.3 855 25.25 20.9 69.7 32 3.6 38.6 21.36 0.841
16:46 1026 30.3 855 25.25 20.9 69.5 27 1.2 34.1 21.26 0.837
16:47 1026 30.3 855 25.25 20.7 69.3 30 2.7 36.9 21.02 0.828
16:48 1026 30.3 855 25.25 20.6 69.1 26 0.8 33.4 20.93 0.824
16:49 1026 30.3 855 25.25 20.5 69 29 2 35.5 20.89 0.822
16:50 1026 30.3 855 25.25 20.6 69 28 1.8 35.2 20.94 0.824
16:51 1026 30.3 855 25.25 20.6 69 34 4.4 39.9 20.98 0.826
16:52 1026 30.3 855 25.25 20.7 69.2 34 4.6 40.2 21.1 0.831
16:53 1026 30.3 855 25.25 20.8 69.4 31 3.3 37.9 21.22 0.835
16:54 1026 30.3 855 25.25 20.8 69.5 28 1.9 35.4 21.17 0.833
16:55 1026 30.3 855 25.25 20.7 69.3 31 3.1 37.6 21.14 0.832
16:56 1026 30.3 855 25.25 20.7 69.3 26 0.9 33.6 21.11 0.831
16:57 1026 30.3 855 25.25 20.8 69.4 31 3.2 37.8 21.13 0.832
16:58 1026 30.3 855 25.25 20.9 69.6 32 3.9 39 21.18 0.834
16:59 1026 30.3 855 25.25 21 69.7 28 2.1 35.8 21.16 0.833
17:00 1026 30.3 855 25.25 20.9 69.6 25 0.1 32.2 21.04 0.828
17:01 1026 30.3 855 25.25 20.8 69.5 33 4.1 39.4 21.12 0.831
17:02 1026 30.3 855 25.25 20.8 69.4 26 0.8 33.5 21.16 0.833
17:03 1026 30.3 855 25.25 20.7 69.3 29 2.3 36.1 21.14 0.832
17:04 1026 30.3 855 25.25 20.8 69.4 31 3.1 37.6 21.23 0.836
17:05 1026 30.3 855 25.25 20.9 69.6 30 2.8 37.1 21.41 0.843
17:06 1026 30.3 855 25.25 21 69.8 25 0.5 32.9 21.53 0.848
17:07 1026 30.3 855 25.25 21.2 70.1 24 -0.1 31.8 21.57 0.849
17:08 1026 30.3 855 25.25 21.3 70.3 32 3.9 39 21.62 0.851
17:09 1026 30.3 855 25.25 21.5 70.6 28 2.5 36.5 21.82 0.859
17:10 1026 30.3 855 25.25 21.6 71 30 3.6 38.5 22 0.866
17:11 1026 30.3 855 25.25 21.8 71.2 29 2.9 37.3 22.2 0.874
17:12 1026 30.3 855 25.25 21.8 71.3 30 3.7 38.7 22.24 0.876
17:13 1026 30.3 855 25.25 21.8 71.3 30 3.4 38.2 22.29 0.878
17:14 1026 30.3 855 25.25 21.7 71 25 1.2 34.1 22.12 0.871
17:15 1026 30.3 855 25.25 21.5 70.7 29 3 37.4 21.96 0.865
17:16 1026 30.3 855 25.25 21.4 70.5 30 3.5 38.2 21.9 0.862
17:17 1026 30.3 855 25.25 21.4 70.5 27 1.9 35.4 21.84 0.86
17:18 1026 30.3 855 25.25 21.4 70.6 25 0.6 33 21.66 0.853
17:19 1026 30.3 855 25.25 21.4 70.4 29 2.7 36.8 21.48 0.846
17:20 1026 30.3 855 25.25 21.3 70.4 27 1.6 35 21.55 0.848
17:21 1026 30.3 855 25.25 21.4 70.5 30 3.1 37.6 21.61 0.851
17:22 1026 30.3 855 25.25 21.4 70.5 30 3.2 37.7 21.58 0.85
17:23 1026 30.3 855 25.25 21.4 70.6 31 4 39.2 21.74 0.856
17:24 1026 30.3 855 25.25 21.5 70.8 33 4.7 40.4 21.76 0.857
17:25 1026 30.3 855 25.25 21.5 70.8 33 4.9 40.8 21.84 0.86
17:26 1026 30.3 855 25.25 21.5 70.8 27 2 35.5 21.81 0.859
17:27 1026 30.3 855 25.25 21.6 70.8 29 2.9 37.2 21.79 0.858
17:28 1026 30.3 855 25.25 21.6 70.9 30 3.5 38.4 21.81 0.859
17:29 1026 30.3 855 25.25 21.7 71 25 0.8 33.4 21.92 0.863
17:30 1026 30.3 855 25.25 21.8 71.2 28 2.7 36.9 21.99 0.866
17:31 1026 30.3 855 25.25 21.8 71.2 33 4.8 40.7 22.15 0.872
17:32 1026 30.3 855 25.25 21.7 71.1 30 3.7 38.6 22.12 0.871
17:33 1026 30.3 855 25.25 21.7 71 29 3 37.5 21.9 0.862
17:34 1026 30.3 855 25.25 21.5 70.8 29 3 37.4 21.8 0.858
17:35 1026 30.3 855 25.25 21.4 70.5 30 3.5 38.2 21.69 0.854
17:36 1026 30.3 855 25.25 21.2 70.2 32 4 39.2 21.59 0.85
17:37 1026 30.3 855 25.25 21.2 70.2 26 1.3 34.3 21.54 0.848
17:38 1026 30.3 855 25.25 21.1 70.1 32 4 39.2 21.47 0.845
17:39 1026 30.3 855 25.25 21.1 70 28 1.9 35.4 21.41 0.843
17:40 1026 30.3 855 25.25 21.1 69.9 27 1.5 34.7 21.41 0.843
17:41 1026 30.3 855 25.25 21.1 69.9 25 0.3 32.5 21.41 0.843
17:42 1026 30.3 855 25.25 21.1 70 30 3 37.5 21.44 0.844
17:43 1026 30.3 855 25.25 21.1 70 29 2.7 36.8 21.55 0.848
17:44 1026 30.3 855 25.25 21.2 70.1 29 2.9 37.2 21.63 0.852
17:45 1026 30.3 855 25.25 21.3 70.3 25 0.5 32.9 21.73 0.856
17:46 1026 30.3 855 25.25 21.4 70.5 29 2.6 36.7 21.85 0.86
17:47 1026 30.3 855 25.25 21.4 70.6 22 -0.9 30.3 21.91 0.863
17:48 1026 30.3 855 25.25 21.4 70.5 26 1.1 33.9 21.97 0.865
17:49 1026 30.3 855 25.25 21.5 70.7 30 3.3 38 22.08 0.869
17:50 1026 30.3 855 25.25 21.6 70.9 31 4 39.1 22.17 0.873
17:51 1026 30.3 855 25.25 21.6 71 28 2.5 36.5 22.2 0.874
17:52 1026 30.3 855 25.25 21.6 70.9 29 2.9 37.3 22.19 0.874
17:53 1026 30.3 855 25.25 21.6 70.9 30 3.7 38.7 22.15 0.872
17:54 1026 30.3 855 25.25 21.6 70.9 27 2 35.6 22.06 0.869
17:55 1026 30.3 855 25.25 21.6 70.9 26 1.3 34.4 21.98 0.865
17:56 1026 30.3 855 25.25 21.6 70.8 24 0.1 32.1 21.95 0.864
17:57 1026 30.3 855 25.25 21.5 70.8 28 2.5 36.6 21.88 0.861
17:58 1026 30.3 855 25.25 21.5 70.7 22 -0.7 30.8 21.82 0.859
17:59 1026 30.3 855 25.25 21.4 70.5 26 1.2 34.2 21.77 0.857
18:00 1026 30.3 855 25.25 21.4 70.6 27 1.6 35 21.92 0.863
18:01 1026 30.3 855 25.25 21.6 70.8 30 3.3 37.9 22.1 0.87
18:02 1026 30.3 855 25.25 21.8 71.2 30 3.5 38.4 22.23 0.875
18:03 1026 30.3 855 25.25 21.9 71.4 31 4 39.2 22.26 0.876
18:04 1026 30.3 855 25.25 22 71.7 31 4.1 39.5 22.32 0.879
18:05 1025 30.27 855 25.25 22.1 71.7 25 1.6 34.9 22.21 0.874
18:06 1025 30.27 855 25.25 22.1 71.7 30 3.9 39 22.21 0.874
18:07 1025 30.27 855 25.25 22.1 71.8 22 -0.3 31.5 22.24 0.876
18:08 1025 30.27 855 25.25 22 71.7 28 2.7 36.8 22.26 0.876
18:09 1025 30.27 855 25.25 22.1 71.8 29 3.3 37.9 22.35 0.88
18:10 1025 30.27 855 25.25 22.1 71.8 25 1.6 34.8 22.21 0.874
18:11 1025 30.27 855 25.25 22 71.6 26 1.7 35 22 0.866
18:12 1025 30.27 855 25.25 21.9 71.4 30 3.8 38.8 21.93 0.863
18:13 1025 30.27 855 25.25 21.8 71.2 23 0.2 32.3 21.87 0.861
18:14 1025 30.27 855 25.25 21.8 71.2 29 3.1 37.6 21.93 0.863
18:15 1025 30.27 855 25.25 21.9 71.4 30 3.5 38.3 22.08 0.869
18:16 1025 30.27 855 25.25 22.1 71.7 25 1.3 34.4 22.33 0.879
18:17 1025 30.27 855 25.25 22.1 71.8 28 3.2 37.7 22.55 0.888
18:18 1025 30.27 855 25.25 22.1 71.7 31 4.2 39.5 22.59 0.889
18:19 1025 30.27 855 25.25 21.9 71.5 28 2.8 37.1 22.46 0.884
18:20 1025 30.27 855 25.25 21.8 71.2 33 4.8 40.7 22.37 0.881
18:21 1025 30.27 855 25.25 21.7 71.1 30 3.4 38 22.28 0.877
18:22 1025 30.27 855 25.25 21.8 71.2 28 2.6 36.7 22.19 0.874
18:23 1025 30.27 855 25.25 21.8 71.3 33 4.9 40.9 22.19 0.874
18:24 1025 30.27 855 25.25 21.9 71.4 29 3.4 38.2 22.15 0.872
18:25 1025 30.27 855 25.25 21.9 71.3 28 2.9 37.2 22.13 0.871
18:26 1025 30.27 855 25.25 21.8 71.2 35 5.7 42.3 22.16 0.872
18:27 1025 30.27 855 25.25 21.8 71.3 32 4.5 40.1 22.07 0.869
18:28 1025 30.27 854 25.22 21.8 71.2 27 2.3 36.1 21.94 0.864
18:29 1025 30.27 854 25.22 21.8 71.2 33 5 41 21.88 0.861
18:30 1025 30.27 854 25.22 21.7 71.1 37 6.7 44.1 21.89 0.862
18:31 1025 30.27 854 25.22 21.6 70.8 36 6.1 42.9 21.91 0.863
18:32 1025 30.27 854 25.22 21.5 70.8 37 6.5 43.7 21.89 0.862
18:33 1025 30.27 854 25.22 21.5 70.7 33 4.6 40.3 21.86 0.861
18:34 1025 30.27 854 25.22 21.5 70.6 35 5.6 42.2 21.75 0.856
18:35 1025 30.27 854 25.22 21.3 70.3 30 3.4 38.2 21.65 0.852
18:36 1025 30.27 854 25.22 21.2 70.2 32 4.1 39.3 21.6 0.85
18:37 1025 30.27 854 25.22 21.2 70.1 34 5.1 41.1 21.53 0.848
18:38 1025 30.27 854 25.22 21.2 70.1 34 4.7 40.4 21.48 0.846
18:39 1025 30.27 854 25.22 21.3 70.3 33 4.6 40.2 21.53 0.848
18:40 1025 30.27 854 25.22 21.3 70.3 27 1.7 35 21.5 0.846
18:41 1025 30.27 854 25.22 21.3 70.4 32 4.3 39.7 21.57 0.849
18:42 1025 30.27 854 25.22 21.4 70.5 26 1.4 34.5 21.69 0.854
18:43 1025 30.27 854 25.22 21.4 70.5 28 2.4 36.3 21.69 0.854
18:44 1025 30.27 854 25.22 21.5 70.6 36 5.9 42.7 21.82 0.859
18:45 1025 30.27 854 25.22 21.6 70.8 34 5.2 41.3 21.97 0.865
18:46 1025 30.27 854 25.22 21.6 70.9 31 3.8 38.8 21.98 0.865
18:47 1025 30.27 854 25.22 21.6 70.9 31 3.9 39.1 21.98 0.865
18:48 1025 30.27 854 25.22 21.6 70.9 28 2.7 36.8 21.91 0.863
18:49 1025 30.27 854 25.22 21.6 70.8 30 3.7 38.6 21.94 0.864
18:50 1025 30.27 854 25.22 21.6 70.9 30 3.4 38.2 21.93 0.863
18:51 1025 30.27 854 25.22 21.6 70.8 26 1.3 34.4 21.94 0.864
18:52 1025 30.27 854 25.22 21.5 70.6 27 1.9 35.4 21.81 0.859
18:53 1025 30.27 854 25.22 21.4 70.5 29 2.8 37 21.76 0.857
18:54 1025 30.27 854 25.22 21.3 70.4 27 1.6 34.9 21.71 0.855
18:55 1025 30.27 854 25.22 21.4 70.4 29 2.6 36.7 21.62 0.851
18:56 1025 30.27 854 25.22 21.4 70.6 28 2.6 36.7 21.65 0.852
18:57 1025 30.27 854 25.22 21.5 70.6 27 2.1 35.7 21.64 0.852
18:58 1025 30.27 854 25.22 21.5 70.7 26 1.4 34.6 21.71 0.855
18:59 1025 30.27 854 25.22 21.5 70.6 30 3.3 38 21.79 0.858
19:00 1025 30.27 854 25.22 21.5 70.8 26 1.4 34.5 21.81 0.859
19:01 1025 30.27 854 25.22 21.6 71 29 3.2 37.7 21.88 0.861
19:02 1025 30.27 854 25.22 21.8 71.2 30 3.4 38.2 22.03 0.867
19:03 1025 30.27 854 25.22 21.9 71.4 29 3.2 37.8 22.12 0.871
19:04 1025 30.27 854 25.22 22 71.6 34 5.5 42 22.2 0.874
19:05 1025 30.27 854 25.22 22.1 71.7 33 5.4 41.6 22.34 0.88
19:06 1025 30.27 854 25.22 22 71.7 32 4.6 40.3 22.26 0.876
19:07 1025 30.27 854 25.22 22 71.6 30 3.9 39.1 22.28 0.877
19:08 1025 30.27 854 25.22 21.9 71.4 30 3.8 38.8 22.17 0.873
19:09 1025 30.27 854 25.22 21.9 71.3 26 2 35.5 22.13 0.871
19:10 1025 30.27 854 25.22 21.8 71.2 26 1.8 35.2 22.01 0.867
19:11 1025 30.27 854 25.22 21.8 71.2 29 3.1 37.5 22.02 0.867
19:12 1025 30.27 854 25.22 21.8 71.2 28 2.8 37 22.04 0.868
19:13 1025 30.27 854 25.22 21.8 71.3 28 2.5 36.5 22.11 0.87
19:14 1025 30.27 854 25.22 21.9 71.4 29 3.1 37.6 22.13 0.871
19:15 1025 30.27 854 25.22 21.9 71.5 28 2.9 37.1 22.06 0.869
19:16 1025 30.27 854 25.22 21.9 71.4 33 5.1 41.1 21.92 0.863
19:17 1025 30.27 854 25.22 21.7 71.1 28 2.7 36.9 21.78 0.857
19:18 1025 30.27 854 25.22 21.7 71 31 4 39.2 21.79 0.858
19:19 1025 30.27 854 25.22 21.6 70.9 31 4.1 39.4 21.8 0.858
19:20 1025 30.27 854 25.22 21.6 70.8 34 5.4 41.7 21.72 0.855
19:21 1025 30.27 854 25.22 21.5 70.7 32 4.5 40.1 21.67 0.853
19:22 1025 30.27 854 25.22 21.4 70.6 33 4.7 40.4 21.61 0.851
19:23 1025 30.27 854 25.22 21.4 70.5 32 4.1 39.4 21.59 0.85
19:24 1025 30.27 854 25.22 21.3 70.4 30 3.4 38.2 21.59 0.85
19:25 1025 30.27 854 25.22 21.3 70.3 32 3.9 39.1 21.52 0.847
19:26 1025 30.27 854 25.22 21.3 70.3 31 3.8 38.8 21.5 0.846
19:27 1025 30.27 854 25.22 21.2 70.2 30 3.2 37.8 21.49 0.846
19:28 1025 30.27 854 25.22 21.3 70.3 32 4.2 39.5 21.47 0.845
19:29 1025 30.27 854 25.22 21.3 70.3 33 4.6 40.3 21.47 0.845
19:30 1025 30.27 854 25.22 21.3 70.3 33 4.5 40.2 21.5 0.846
19:31 1025 30.27 854 25.22 21.3 70.4 38 6.7 44.1 21.54 0.848
19:32 1025 30.27 854 25.22 21.4 70.6 32 4.4 39.9 21.54 0.848
19:33 1025 30.27 854 25.22 21.4 70.5 35 5.5 41.9 21.49 0.846
19:34 1025 30.27 854 25.22 21.4 70.4 35 5.6 42 21.41 0.843
19:35 1025 30.27 854 25.22 21.3 70.4 38 6.7 44.1 21.38 0.842
19:36 1025 30.27 854 25.22 21.4 70.5 35 5.4 41.7 21.43 0.844
19:37 1025 30.27 854 25.22 21.5 70.6 36 6 42.7 21.41 0.843
19:38 1025 30.27 854 25.22 21.5 70.6 35 5.4 41.8 21.32 0.839
19:39 1025 30.27 854 25.22 21.4 70.5 35 5.4 41.7 21.29 0.838
19:40 1025 30.27 854 25.22 21.4 70.5 28 2.2 36 21.22 0.835
19:41 1025 30.27 854 25.22 21.4 70.5 31 3.7 38.6 21.2 0.835
19:42 1025 30.27 854 25.22 21.4 70.6 32 4.1 39.3 21.26 0.837
19:43 1025 30.27 854 25.22 21.4 70.6 30 3.3 37.9 21.34 0.84
19:44 1025 30.27 854 25.22 21.5 70.7 28 2.7 36.8 21.37 0.841
19:45 1025 30.27 854 25.22 21.6 70.8 31 4.1 39.3 21.48 0.846
19:46 1025 30.27 854 25.22 21.7 71 31 3.9 39 21.51 0.847
19:47 1025 30.27 854 25.22 21.7 71.1 31 4.2 39.6 21.59 0.85
19:48 1025 30.27 854 25.22 21.9 71.3 30 3.5 38.3 21.82 0.859
19:49 1025 30.27 854 25.22 22 71.6 32 4.7 40.5 21.99 0.866
19:50 1025 30.27 854 25.22 22.2 72 26 2.2 36 22.21 0.874
19:51 1025 30.27 854 25.22 22.5 72.5 33 5.6 42.2 22.39 0.881
19:52 1025 30.27 854 25.22 22.7 72.9 22 0.4 32.7 22.6 0.89
19:53 1025 30.27 854 25.22 22.8 73 24 1.3 34.3 22.5 0.886
19:54 1025 30.27 854 25.22 22.8 73 26 2.6 36.7 22.48 0.885
19:55 1025 30.27 854 25.22 22.8 73 25 2.2 35.9 22.6 0.89
19:56 1025 30.27 854 25.22 22.8 73.1 27 3.2 37.8 22.67 0.893
19:57 1025 30.27 854 25.22 22.9 73.1 25 2 35.6 22.59 0.889
19:58 1025 30.27 854 25.22 22.8 73.1 25 1.8 35.2 22.61 0.89
19:59 1025 30.27 854 25.22 22.8 73 23 1 33.8 22.63 0.891
20:00 1025 30.27 854 25.22 22.7 72.8 26 2.6 36.6 22.65 0.892
20:01 1025 30.27 854 25.22 22.7 72.8 28 3.3 38 22.6 0.89
20:02 1025 30.27 854 25.22 22.7 72.8 25 2 35.7 22.55 0.888
20:03 1025 30.27 854 25.22 22.6 72.7 28 3.6 38.5 22.59 0.889
20:04 1025 30.27 854 25.22 22.7 72.8 29 3.8 38.8 22.52 0.887
20:05 1025 30.27 854 25.22 22.6 72.6 28 3.3 38 22.31 0.878
20:06 1025 30.27 854 25.22 22.4 72.3 28 3.2 37.7 22.12 0.871
20:07 1025 30.27 854 25.22 22.2 71.9 27 2.5 36.4 21.89 0.862
20:08 1025 30.27 854 25.22 21.9 71.4 31 4 39.2 21.69 0.854
20:09 1025 30.27 854 25.22 21.6 70.9 34 5.1 41.2 21.55 0.848
20:10 1025 30.27 854 25.22 21.5 70.7 36 6.2 43.1 21.57 0.849
20:11 1025 30.27 854 25.22 21.6 70.8 31 3.8 38.9 21.64 0.852
20:12 1025 30.27 854 25.22 21.6 70.9 29 3 37.4 21.64 0.852
20:13 1025 30.27 854 25.22 21.7 71 28 2.7 36.8 21.58 0.85
20:14 1025 30.27 854 25.22 21.7 71 29 2.8 37.1 21.55 0.848
20:15 1025 30.27 854 25.22 21.7 71 29 3.3 37.9 21.47 0.845
20:16 1025 30.27 854 25.22 21.5 70.7 30 3.3 38 21.28 0.838
20:17 1025 30.27 854 25.22 21.3 70.3 31 3.8 38.9 21.08 0.83
20:18 1025 30.27 854 25.22 21.1 69.9 32 3.7 38.7 20.92 0.824
20:19 1025 30.27 854 25.22 20.9 69.6 30 2.8 37 20.81 0.819
20:20 1025 30.27 854 25.22 20.7 69.3 30 2.9 37.2 20.71 0.815
20:21 1025 30.27 854 25.22 20.7 69.2 33 3.8 38.9 20.68 0.814
20:22 1025 30.27 854 25.22 20.5 68.9 32 3.4 38.2 20.6 0.811
20:23 1025 30.27 854 25.22 20.5 68.8 31 3 37.4 20.56 0.809
20:24 1025 30.27 854 25.22 20.5 68.9 32 3.5 38.3 20.63 0.812
20:25 1025 30.27 854 25.22 20.6 69.1 33 3.8 38.8 20.76 0.817
20:26 1025 30.27 854 25.22 20.6 69 32 3.6 38.6 20.84 0.82
20:27 1025 30.27 854 25.22 20.5 68.8 32 3.5 38.3 20.75 0.817
20:28 1025 30.27 854 25.22 20.4 68.7 32 3.3 37.9 20.71 0.815
20:29 1025 30.27 854 25.22 20.3 68.5 32 3.3 38 20.67 0.814
20:30 1025 30.27 854 25.22 20.1 68.1 33 3.4 38.2 20.6 0.811
20:31 1025 30.27 854 25.22 19.9 67.9 33 3.3 38 20.5 0.807
20:32 1025 30.27 854 25.22 19.8 67.6 34 3.7 38.7 20.4 0.803
20:33 1025 30.27 854 25.22 19.6 67.3 37 4.7 40.4 20.31 0.8
20:34 1025 30.27 854 25.22 19.5 67.1 36 4.2 39.6 20.14 0.793
20:35 1025 30.27 854 25.22 19.4 66.8 36 3.9 39.1 19.97 0.786
20:36 1025 30.27 854 25.22 19.2 66.6 37 4.5 40.1 19.77 0.778
20:37 1025 30.27 854 25.22 18.9 66.1 38 4.4 39.8 19.57 0.77
20:38 1025 30.27 854 25.22 18.8 65.8 39 4.7 40.4 19.34 0.761
20:39 1025 30.27 854 25.22 18.6 65.5 42 5.6 42 19.15 0.754
20:40 1025 30.27 854 25.22 18.4 65.1 44 6.2 43.1 18.94 0.746
20:41 1025 30.27 854 25.22 18.2 64.7 46 6.4 43.4 18.74 0.738
20:42 1025 30.27 854 25.22 17.9 64.3 46 6.4 43.5 18.48 0.728
20:43 1025 30.27 854 25.22 17.8 64 48 6.6 43.9 18.26 0.719
20:44 1025 30.27 854 25.22 17.6 63.6 49 6.8 44.3 18.09 0.712
20:45 1025 30.27 854 25.22 17.4 63.4 48 6.4 43.4 17.87 0.704
20:46 1025 30.27 854 25.22 17.3 63.1 43 4.7 40.5 17.67 0.696
20:47 1025 30.27 854 25.22 17.3 63.1 44 5 41.1 17.59 0.693
20:48 1025 30.27 854 25.22 17.3 63.1 43 4.6 40.3 17.61 0.693
20:49 1025 30.27 854 25.22 17.3 63.1 44 5 41.1 17.59 0.693
20:50 1025 30.27 854 25.22 17.2 63 46 5.6 42.2 17.57 0.692
20:51 1025 30.27 854 25.22 17.1 62.9 41 4 39.1 17.53 0.69
20:52 1025 30.27 854 25.22 17.2 62.9 40 3.7 38.7 17.48 0.688
20:53 1025 30.27 854 25.22 17.2 62.9 45 5.1 41.2 17.52 0.69
20:54 1025 30.27 854 25.22 17 62.6 46 5.5 41.9 17.38 0.684
20:55 1025 30.27 854 25.22 16.8 62.2 48 5.7 42.3 17.19 0.677
20:56 1025 30.27 854 25.22 16.5 61.7 54 7.2 44.9 16.93 0.667
20:57 1025 30.27 854 25.22 16.1 60.9 55 7.1 44.8 16.57 0.652
20:58 1025 30.27 854 25.22 15.7 60.3 57 7.4 45.3 16.18 0.637
20:59 1025 30.27 854 25.22 15.4 59.7 58 7.2 44.9 15.88 0.625
21:00 1025 30.27 854 25.22 15.1 59.1 60 7.5 45.4 15.6 0.614
21:01 1025 30.27 854 25.22 14.9 58.8 61 7.4 45.4 15.3 0.602
21:02 1025 30.27 854 25.22 14.8 58.6 61 7.4 45.2 15.17 0.597
21:03 1025 30.27 854 25.22 14.6 58.4 61 7.3 45.2 15.05 0.593
21:04 1025 30.27 854 25.22 14.6 58.2 59 6.7 44.1 14.95 0.589
21:05 1025 30.27 854 25.22 14.7 58.5 58 6.6 43.9 15 0.591
21:06 1025 30.27 854 25.22 14.8 58.6 58 6.6 43.9 15.07 0.593
21:07 1025 30.27 854 25.22 14.9 58.7 59 7 44.7 15.15 0.596
21:08 1025 30.27 854 25.22 14.7 58.5 61 7.5 45.4 15.06 0.593
21:09 1025 30.27 854 25.22 14.5 58 63 7.6 45.7 14.85 0.585
21:10 1025 30.27 854 25.22 14.2 57.5 65 7.7 45.9 14.54 0.572
21:11 1025 30.27 854 25.22 13.9 56.9 66 7.6 45.7 14.24 0.561
21:12 1025 30.27 854 25.22 13.6 56.4 66 7.3 45.2 13.98 0.55
21:13 1025 30.27 854 25.22 13.4 56.1 65 7.1 44.8 13.74 0.541
21:14 1025 30.27 854 25.22 13.2 55.7 65 6.8 44.3 13.57 0.534
21:15 1025 30.27 854 25.22 13.1 55.6 65 6.8 44.2 13.45 0.53
21:16 1025 30.27 854 25.22 12.9 55.2 66 6.9 44.4 13.32 0.524
21:17 1025 30.27 854 25.22 12.7 54.9 68 7 44.6 13.12 0.517
21:18 1025 30.27 854 25.22 12.5 54.4 70 7.2 45 12.94 0.509
21:19 1025 30.27 854 25.22 12.2 54 72 7.4 45.3 12.66 0.498
21:20 1025 30.27 854 25.22 11.9 53.5 73 7.3 45.2 12.42 0.489
21:21 1025 30.27 854 25.22 11.8 53.2 71 6.8 44.2 12.22 0.481
21:22 1025 30.27 854 25.22 11.7 53.1 70 6.5 43.6 12.09 0.476
21:23 1025 30.27 854 25.22 11.7 53 69 6.3 43.3 12.04 0.474
21:24 1025 30.27 854 25.22 11.6 52.9 70 6.3 43.3 11.98 0.472
21:25 1025 30.27 854 25.22 11.5 52.7 70 6.3 43.4 11.88 0.468
21:26 1025 30.27 854 25.22 11.3 52.4 71 6.3 43.4 11.72 0.461
21:27 1025 30.27 854 25.22 11.2 52.2 72 6.4 43.4 11.57 0.456
21:28 1025 30.27 854 25.22 11 51.9 73 6.4 43.5 11.46 0.451
21:29 1025 30.27 854 25.22 10.8 51.5 74 6.3 43.4 11.24 0.443
21:30 1025 30.27 854 25.22 10.7 51.2 74 6.3 43.4 11.14 0.439
21:31 1025 30.27 854 25.22 10.6 51 75 6.3 43.4 11.01 0.433
21:32 1025 30.27 854 25.22 10.5 50.8 75 6.3 43.4 10.87 0.428
21:33 1025 30.27 854 25.22 10.3 50.5 77 6.4 43.5 10.73 0.422
21:34 1025 30.27 854 25.22 10.1 50.1 77 6.3 43.3 10.5 0.413
21:35 1025 30.27 854 25.22 9.8 49.7 78 6.2 43.2 10.33 0.407
21:36 1025 30.27 854 25.22 9.7 49.5 79 6.4 43.4 10.19 0.401
21:37 1025 30.27 854 25.22 9.6 49.3 80 6.3 43.4 10.1 0.398
21:38 1025 30.27 854 25.22 9.6 49.3 79 6.2 43.2 10.03 0.395
21:39 1025 30.27 854 25.22 9.7 49.5 78 6.2 43.1 10.14 0.399
21:40 1025 30.27 854 25.22 9.9 49.7 78 6.2 43.1 10.25 0.404
21:41 1025 30.27 854 25.22 9.9 49.8 78 6.2 43.2 10.26 0.404
21:42 1025 30.27 854 25.22 9.8 49.6 78 6.1 43.1 10.23 0.403
21:43 1025 30.27 854 25.22 9.8 49.6 78 6.1 43 10.15 0.4
21:44 1025 30.27 854 25.22 9.7 49.5 78 6.1 43 10.12 0.398
21:45 1025 30.27 854 25.22 9.7 49.4 78 6.1 43 10.06 0.396
21:46 1025 30.27 854 25.22 9.6 49.3 79 6.1 42.9 10.04 0.395
21:47 1025 30.27 854 25.22 9.5 49.2 79 6.1 43 9.95 0.392
21:48 1025 30.27 854 25.22 9.4 49 79 6 42.9 9.83 0.387
21:49 1025 30.27 854 25.22 9.3 48.8 79 5.9 42.6 9.77 0.385
21:50 1025 30.27 854 25.22 9.3 48.8 79 5.8 42.4 9.7 0.382
21:51 1025 30.27 854 25.22 9.3 48.7 79 5.8 42.5 9.68 0.381
21:52 1025 30.27 854 25.22 9.2 48.6 79 5.8 42.5 9.58 0.377
21:53 1025 30.27 855 25.25 9.1 48.4 80 5.8 42.4 9.54 0.376
21:54 1025 30.27 854 25.22 9.1 48.4 80 5.9 42.6 9.47 0.373
21:55 1025 30.27 854 25.22 9 48.2 80 5.8 42.5 9.43 0.371
21:56 1025 30.27 854 25.22 8.9 48 81 5.8 42.4 9.33 0.367
21:57 1025 30.27 855 25.25 8.9 47.9 80 5.6 42.1 9.29 0.366
21:58 1025 30.27 855 25.25 8.9 48 79 5.5 41.8 9.28 0.365
21:59 1025 30.27 855 25.25 9 48.1 78 5.4 41.7 9.29 0.366
22:00 1025 30.27 855 25.25 9 48.2 78 5.4 41.7 9.37 0.369
22:01 1025 30.27 855 25.25 9.1 48.4 77 5.4 41.7 9.46 0.372
22:02 1025 30.27 855 25.25 9.2 48.6 76 5.3 41.5 9.55 0.376
22:03 1025 30.27 855 25.25 9.3 48.7 76 5.2 41.4 9.63 0.379
22:04 1025 30.27 855 25.25 9.3 48.8 75 5.2 41.3 9.65 0.38
22:05 1025 30.27 855 25.25 9.4 49 75 5.2 41.3 9.72 0.383
22:06 1025 30.27 855 25.25 9.5 49.1 74 5.1 41.2 9.83 0.387
22:07 1025 30.27 855 25.25 9.6 49.2 73 5.1 41.1 9.91 0.39
22:08 1025 30.27 855 25.25 9.7 49.4 74 5.2 41.3 10.01 0.394
22:09 1025 30.27 855 25.25 9.7 49.4 73 5.1 41.2 10.03 0.395
22:10 1025 30.27 855 25.25 9.7 49.4 73 5.1 41.2 10 0.394
22:11 1025 30.27 855 25.25 9.6 49.3 74 5.1 41.2 9.96 0.392
22:12 1026 30.3 855 25.25 9.6 49.3 73 5.1 41.1 9.99 0.393
22:13 1026 30.3 855 25.25 9.7 49.5 73 5 41.1 10.05 0.396
22:14 1026 30.3 855 25.25 9.8 49.6 73 5.2 41.3 10.09 0.397
22:15 1026 30.3 855 25.25 9.7 49.5 73 5.1 41.3 10.07 0.396
22:16 1026 30.3 855 25.25 9.7 49.4 73 5.1 41.2 10.05 0.396
22:17 1026 30.3 855 25.25 9.6 49.3 74 5.2 41.4 10 0.394
22:18 1026 30.3 855 25.25 9.6 49.2 75 5.3 41.5 9.93 0.391
22:19 1026 30.3 855 25.25 9.4 48.9 75 5.3 41.5 9.83 0.387
22:20 1026 30.3 855 25.25 9.3 48.7 76 5.3 41.5 9.68 0.381
22:21 1026 30.3 855 25.25 9.2 48.5 76 5.2 41.4 9.58 0.377
22:22 1026 30.3 855 25.25 9 48.3 77 5.2 41.3 9.46 0.372
22:23 1026 30.3 855 25.25 9 48.1 77 5.2 41.4 9.35 0.368
22:24 1026 30.3 855 25.25 8.8 47.9 78 5.2 41.3 9.23 0.363
22:25 1026 30.3 855 25.25 8.7 47.7 78 5.1 41.2 9.12 0.359
22:26 1026 30.3 855 25.25 8.7 47.6 78 5.1 41.1 9.09 0.358
22:27 1026 30.3 855 25.25 8.6 47.5 78 5 41 9.04 0.356
22:28 1026 30.3 855 25.25 8.6 47.4 78 5 41 8.97 0.353
22:29 1026 30.3 855 25.25 8.5 47.3 78 5 41 8.94 0.352
22:30 1026 30.3 855 25.25 8.5 47.4 79 5 41.1 8.9 0.35
22:31 1026 30.3 855 25.25 8.4 47.2 79 4.9 40.9 8.84 0.348
22:32 1026 30.3 855 25.25 8.4 47 79 4.9 40.8 8.78 0.346
22:33 1026 30.3 855 25.25 8.4 47.1 79 4.9 40.8 8.75 0.344
22:34 1026 30.3 855 25.25 8.4 47.1 78 4.8 40.6 8.78 0.346
22:35 1026 30.3 855 25.25 8.5 47.3 77 4.8 40.6 8.85 0.348
22:36 1026 30.3 855 25.25 8.5 47.4 77 4.7 40.5 8.88 0.35
22:37 1026 30.3 855 25.25 8.6 47.5 76 4.7 40.5 8.96 0.353
22:38 1026 30.3 855 25.25 8.7 47.6 76 4.7 40.4 9.04 0.356
22:39 1026 30.3 855 25.25 8.7 47.7 75 4.7 40.4 9.1 0.358
22:40 1026 30.3 855 25.25 8.8 47.8 75 4.6 40.4 9.12 0.359
22:41 1026 30.3 855 25.25 8.8 47.8 75 4.6 40.4 9.11 0.359
22:42 1026 30.3 855 25.25 8.8 47.8 75 4.6 40.3 9.14 0.36
22:43 1026 30.3 855 25.25 8.8 47.9 75 4.6 40.3 9.2 0.362
22:44 1026 30.3 855 25.25 8.9 47.9 74 4.6 40.2 9.14 0.36
22:45 1026 30.3 855 25.25 8.9 48 74 4.5 40.2 9.22 0.363
22:46 1026 30.3 855 25.25 8.8 47.9 74 4.5 40.1 9.22 0.363
22:47 1026 30.3 855 25.25 8.9 47.9 74 4.5 40.1 9.25 0.364
22:48 1026 30.3 855 25.25 8.8 47.9 75 4.6 40.3 9.2 0.362
22:49 1026 30.3 855 25.25 8.8 47.8 75 4.6 40.2 9.13 0.359
22:50 1026 30.3 855 25.25 8.7 47.7 75 4.6 40.2 9.06 0.357
22:51 1026 30.3 855 25.25 8.6 47.5 75 4.5 40.1 9.03 0.356
22:52 1026 30.3 855 25.25 8.6 47.5 75 4.5 40 9.01 0.355
22:53 1026 30.3 855 25.25 8.7 47.6 75 4.4 40 9.01 0.355
22:54 1026 30.3 855 25.25 8.7 47.6 75 4.4 40 9.05 0.356
22:55 1026 30.3 855 25.25 8.7 47.6 75 4.4 40 9.05 0.356
22:56 1026 30.3 855 25.25 8.7 47.7 74 4.4 39.9 9.07 0.357
22:57 1026 30.3 855 25.25 8.7 47.6 75 4.4 40 9.05 0.356
22:58 1026 30.3 855 25.25 8.6 47.6 74 4.4 39.8 9.05 0.356
22:59 1026 30.3 855 25.25 8.7 47.6 74 4.4 39.9 9.01 0.355
23:00 1026 30.3 855 25.25 8.7 47.6 74 4.4 39.9 8.97 0.353
23:01 1026 30.3 855 25.25 8.6 47.5 74 4.3 39.8 8.97 0.353
23:02 1026 30.3 855 25.25 8.7 47.7 74 4.4 39.9 9.01 0.355
23:03 1026 30.3 855 25.25 8.7 47.7 74 4.4 39.9 9.04 0.356
23:04 1026 30.3 855 25.25 8.7 47.7 73 4.2 39.5 9.05 0.356
23:05 1026 30.3 855 25.25 8.7 47.7 72 4.1 39.3 9.07 0.357
23:06 1026 30.3 855 25.25 8.8 47.9 72 4.1 39.4 9.12 0.359
23:07 1026 30.3 855 25.25 8.9 48 71 4 39.2 9.14 0.36
23:08 1026 30.3 855 25.25 8.9 48.1 71 4 39.2 9.19 0.362
23:09 1026 30.3 855 25.25 8.9 48 72 4.1 39.3 9.2 0.362
23:10 1026 30.3 855 25.25 8.9 48 72 4.1 39.4 9.13 0.359
23:11 1026 30.3 855 25.25 8.8 47.8 72 4.1 39.4 9.09 0.358
23:12 1026 30.3 855 25.25 8.7 47.7 73 4.1 39.4 9.03 0.356
23:13 1026 30.3 855 25.25 8.7 47.6 73 4.1 39.4 8.99 0.354
23:14 1026 30.3 855 25.25 8.6 47.5 73 4.1 39.4 8.94 0.352
23:15 1026 30.3 855 25.25 8.6 47.5 73 4 39.3 8.95 0.352
23:16 1026 30.3 855 25.25 8.7 47.7 72 4 39.1 9.07 0.357
23:17 1026 30.3 855 25.25 8.8 47.9 72 4 39.2 9.15 0.36
23:18 1026 30.3 855 25.25 8.9 48 71 3.9 39.1 9.23 0.363
23:19 1026 30.3 855 25.25 9 48.2 71 4 39.1 9.3 0.366
23:20 1026 30.3 855 25.25 9.1 48.4 70 4 39.1 9.36 0.369
23:21 1026 30.3 855 25.25 9.1 48.4 70 4 39.1 9.36 0.369
23:22 1026 30.3 855 25.25 9.1 48.4 70 4 39.2 9.34 0.368
23:23 1026 30.3 855 25.25 9.1 48.3 70 3.9 39 9.34 0.368
23:24 1026 30.3 855 25.25 9.1 48.3 70 3.9 39.1 9.33 0.367
23:25 1026 30.3 855 25.25 9.1 48.3 70 3.9 39 9.34 0.368
23:26 1026 30.3 855 25.25 9 48.2 70 3.9 39 9.33 0.367
23:27 1026 30.3 855 25.25 9.1 48.3 69 3.8 38.8 9.36 0.369
23:28 1026 30.3 855 25.25 9.1 48.4 69 3.7 38.6 9.36 0.369
23:29 1026 30.3 855 25.25 9.2 48.6 68 3.6 38.4 9.43 0.371
23:30 1026 30.3 855 25.25 9.4 48.8 67 3.5 38.4 9.55 0.376
23:31 1026 30.3 855 25.25 9.5 49 67 3.6 38.5 9.65 0.38
23:32 1026 30.3 855 25.25 9.5 49.1 67 3.7 38.6 9.7 0.382
23:33 1026 30.3 855 25.25 9.6 49.2 66 3.6 38.4 9.83 0.387
23:34 1026 30.3 855 25.25 9.7 49.4 66 3.7 38.6 9.91 0.39
23:35 1026 30.3 855 25.25 9.7 49.5 65 3.4 38.2 10.01 0.394
23:36 1026 30.3 855 25.25 9.9 49.7 64 3.5 38.3 10.12 0.398
23:37 1026 30.3 855 25.25 10.1 50.1 64 3.6 38.5 10.26 0.404
23:38 1026 30.3 855 25.25 10 50.1 64 3.6 38.5 10.32 0.406
23:39 1026 30.3 855 25.25 10.1 50.1 64 3.5 38.4 10.32 0.406
23:40 1026 30.3 855 25.25 10.1 50.2 63 3.5 38.3 10.37 0.408
23:41 1026 30.3 855 25.25 10.2 50.3 63 3.5 38.3 10.39 0.409
23:42 1026 30.3 855 25.25 10.2 50.4 62 3.4 38.1 10.44 0.411
23:43 1026 30.3 855 25.25 10.3 50.5 62 3.3 37.9 10.49 0.413
23:44 1026 30.3 855 25.25 10.4 50.6 62 3.3 38 10.54 0.415
23:45 1026 30.3 855 25.25 10.3 50.6 62 3.4 38.1 10.58 0.417
23:46 1026 30.3 855 25.25 10.3 50.5 62 3.4 38.1 10.53 0.415
23:47 1026 30.3 855 25.25 10.2 50.4 62 3.3 37.9 10.44 0.411
23:48 1026 30.3 855 25.25 10.1 50.2 62 3.3 37.9 10.38 0.409
23:49 1026 30.3 855 25.25 10.1 50.2 62 3.3 37.9 10.34 0.407
23:50 1026 30.3 855 25.25 10.1 50.1 62 3.2 37.8 10.3 0.406
23:51 1026 30.3 855 25.25 10.1 50.1 62 3.2 37.8 10.34 0.407
23:52 1026 30.3 855 25.25 10 50.1 63 3.3 37.9 10.29 0.405
23:53 1026 30.3 855 25.25 10 49.9 63 3.2 37.8 10.23 0.403
23:54 1026 30.3 855 25.25 9.9 49.9 63 3.2 37.8 10.18 0.401
23:55 1026 30.3 855 25.25 9.9 49.8 64 3.4 38.1 10.13 0.399
23:56 1026 30.3 855 25.25 9.7 49.5 64 3.3 38 10.02 0.394
23:57 1026 30.3 855 25.25 9.7 49.4 64 3.3 38 9.95 0.392
23:58 1026 30.3 855 25.25 9.6 49.3 65 3.3 38 9.9 0.39
23:59 1026 30.3 855 25.25 9.6 49.2 65 3.3 37.9 9.85 0.388
24:00 1026 30.3 855 25.25 9.6 49.2 64 3.1 37.6 9.83 0.387